<?xml version="1.0" encoding="utf-8"?>
<gpx xmlns:xsi="http://www.w3.org/2001/XMLSchema-instance" xmlns:xsd="http://www.w3.org/2001/XMLSchema" version="1.1" creator="Shapelink.com" xmlns="http://www.topografix.com/GPX/1/1" xmlns:gpxtpx="http://www.garmin.com/xmlschemas/TrackPointExtension/v1">
  <metadata>
    <name>Skilanglauf 18.37 km, 2018-02-26</name>
    <desc></desc>
    <author><name>Henrik Staffas</name></author> 
    <time>2018-02-26T14:09:18Z</time>
  </metadata>
  <trk>
    <name>Skilanglauf 18.37 km, 2018-02-26</name>
    <trkseg>
      <trkpt lat="62.05132807574" lon="12.38613311922">
        <ele>797</ele>
        <time>2018-02-26T14:09:18Z</time>
      </trkpt>
      <trkpt lat="62.051359759322" lon="12.38603840375">
        <ele>796.6</ele>
        <time>2018-02-26T14:09:21Z</time>
      </trkpt>
      <trkpt lat="62.05150912478" lon="12.385409509793">
        <ele>797.2</ele>
        <time>2018-02-26T14:09:32Z</time>
      </trkpt>
      <trkpt lat="62.051581963491" lon="12.384404687621">
        <ele>796.4</ele>
        <time>2018-02-26T14:09:45Z</time>
      </trkpt>
      <trkpt lat="62.051671817459" lon="12.383708989921">
        <ele>795.6</ele>
        <time>2018-02-26T14:09:54Z</time>
      </trkpt>
      <trkpt lat="62.051757480477" lon="12.382737695349">
        <ele>795.2</ele>
        <time>2018-02-26T14:10:06Z</time>
      </trkpt>
      <trkpt lat="62.051811627551" lon="12.381752905918">
        <ele>794.8</ele>
        <time>2018-02-26T14:10:19Z</time>
      </trkpt>
      <trkpt lat="62.051971973298" lon="12.380861239396">
        <ele>795.2</ele>
        <time>2018-02-26T14:10:35Z</time>
      </trkpt>
      <trkpt lat="62.052418058016" lon="12.380618834848">
        <ele>796.6</ele>
        <time>2018-02-26T14:10:53Z</time>
      </trkpt>
      <trkpt lat="62.052578319944" lon="12.380539374436">
        <ele>796.8</ele>
        <time>2018-02-26T14:11:00Z</time>
      </trkpt>
      <trkpt lat="62.052854922644" lon="12.380377687585">
        <ele>797.8</ele>
        <time>2018-02-26T14:11:12Z</time>
      </trkpt>
      <trkpt lat="62.05318131383" lon="12.380172582492">
        <ele>798.8</ele>
        <time>2018-02-26T14:11:26Z</time>
      </trkpt>
      <trkpt lat="62.0536448329" lon="12.37996906996">
        <ele>799.8</ele>
        <time>2018-02-26T14:11:44Z</time>
      </trkpt>
      <trkpt lat="62.053801490611" lon="12.379789026748">
        <ele>800.4</ele>
        <time>2018-02-26T14:11:51Z</time>
      </trkpt>
      <trkpt lat="62.053985221859" lon="12.379562380172">
        <ele>801</ele>
        <time>2018-02-26T14:11:59Z</time>
      </trkpt>
      <trkpt lat="62.054361401531" lon="12.378977994104">
        <ele>801.2</ele>
        <time>2018-02-26T14:12:16Z</time>
      </trkpt>
      <trkpt lat="62.054465672367" lon="12.378773894839">
        <ele>801.4</ele>
        <time>2018-02-26T14:12:22Z</time>
      </trkpt>
      <trkpt lat="62.054518143061" lon="12.378694350608">
        <ele>801.4</ele>
        <time>2018-02-26T14:13:01Z</time>
      </trkpt>
      <trkpt lat="62.054530045359" lon="12.378708348381">
        <ele>801.4</ele>
        <time>2018-02-26T14:13:04Z</time>
      </trkpt>
      <trkpt lat="62.054565919891" lon="12.378623355915">
        <ele>801.6</ele>
        <time>2018-02-26T14:13:07Z</time>
      </trkpt>
      <trkpt lat="62.054644290656" lon="12.378444486169">
        <ele>802</ele>
        <time>2018-02-26T14:13:11Z</time>
      </trkpt>
      <trkpt lat="62.054997923017" lon="12.377816849497">
        <ele>802.6</ele>
        <time>2018-02-26T14:13:27Z</time>
      </trkpt>
      <trkpt lat="62.055365553151" lon="12.377246880297">
        <ele>802.8</ele>
        <time>2018-02-26T14:13:42Z</time>
      </trkpt>
      <trkpt lat="62.055657243271" lon="12.37648890508">
        <ele>802.4</ele>
        <time>2018-02-26T14:13:57Z</time>
      </trkpt>
      <trkpt lat="62.055870646445" lon="12.375609727589">
        <ele>802.2</ele>
        <time>2018-02-26T14:14:12Z</time>
      </trkpt>
      <trkpt lat="62.055945077717" lon="12.374655615912">
        <ele>803</ele>
        <time>2018-02-26T14:14:29Z</time>
      </trkpt>
      <trkpt lat="62.055963601716" lon="12.374505579902">
        <ele>803</ele>
        <time>2018-02-26T14:14:32Z</time>
      </trkpt>
      <trkpt lat="62.056223021521" lon="12.373671832309">
        <ele>803</ele>
        <time>2018-02-26T14:14:50Z</time>
      </trkpt>
      <trkpt lat="62.056490823226" lon="12.372860883484">
        <ele>803.4</ele>
        <time>2018-02-26T14:15:06Z</time>
      </trkpt>
      <trkpt lat="62.056870690934" lon="12.372290662827">
        <ele>803.6</ele>
        <time>2018-02-26T14:15:24Z</time>
      </trkpt>
      <trkpt lat="62.056896339548" lon="12.372251519354">
        <ele>803.6</ele>
        <time>2018-02-26T14:15:25Z</time>
      </trkpt>
      <trkpt lat="62.057331360158" lon="12.371954883913">
        <ele>803</ele>
        <time>2018-02-26T14:15:41Z</time>
      </trkpt>
      <trkpt lat="62.057496651226" lon="12.371845835394">
        <ele>804.2</ele>
        <time>2018-02-26T14:15:49Z</time>
      </trkpt>
      <trkpt lat="62.057650794367" lon="12.371641568491">
        <ele>805.2</ele>
        <time>2018-02-26T14:15:57Z</time>
      </trkpt>
      <trkpt lat="62.058019765605" lon="12.371006891023">
        <ele>805.8</ele>
        <time>2018-02-26T14:16:15Z</time>
      </trkpt>
      <trkpt lat="62.0584225159" lon="12.370506575412">
        <ele>804.8</ele>
        <time>2018-02-26T14:16:28Z</time>
      </trkpt>
      <trkpt lat="62.058493259136" lon="12.370439604031">
        <ele>804.2</ele>
        <time>2018-02-26T14:16:30Z</time>
      </trkpt>
      <trkpt lat="62.058915203982" lon="12.370064346368">
        <ele>804.8</ele>
        <time>2018-02-26T14:16:46Z</time>
      </trkpt>
      <trkpt lat="62.059116285763" lon="12.369902072784">
        <ele>805.2</ele>
        <time>2018-02-26T14:16:54Z</time>
      </trkpt>
      <trkpt lat="62.059215276002" lon="12.369808111685">
        <ele>805.4</ele>
        <time>2018-02-26T14:16:58Z</time>
      </trkpt>
      <trkpt lat="62.059609895854" lon="12.36925113443">
        <ele>805</ele>
        <time>2018-02-26T14:17:14Z</time>
      </trkpt>
      <trkpt lat="62.059995295616" lon="12.368678231565">
        <ele>804.8</ele>
        <time>2018-02-26T14:17:28Z</time>
      </trkpt>
      <trkpt lat="62.060091938923" lon="12.368474299938">
        <ele>804.2</ele>
        <time>2018-02-26T14:17:32Z</time>
      </trkpt>
      <trkpt lat="62.060290338496" lon="12.368136257911">
        <ele>803.2</ele>
        <time>2018-02-26T14:17:40Z</time>
      </trkpt>
      <trkpt lat="62.060726281115" lon="12.36780693306">
        <ele>804.2</ele>
        <time>2018-02-26T14:17:57Z</time>
      </trkpt>
      <trkpt lat="62.061189632547" lon="12.3676694699">
        <ele>805</ele>
        <time>2018-02-26T14:18:16Z</time>
      </trkpt>
      <trkpt lat="62.061211676944" lon="12.367660668905">
        <ele>805.2</ele>
        <time>2018-02-26T14:18:17Z</time>
      </trkpt>
      <trkpt lat="62.061327514802" lon="12.367611467152">
        <ele>806.4</ele>
        <time>2018-02-26T14:18:22Z</time>
      </trkpt>
      <trkpt lat="62.06162859265" lon="12.367456988735">
        <ele>806.4</ele>
        <time>2018-02-26T14:18:33Z</time>
      </trkpt>
      <trkpt lat="62.062062020699" lon="12.367215590015">
        <ele>806.6</ele>
        <time>2018-02-26T14:18:50Z</time>
      </trkpt>
      <trkpt lat="62.062480026052" lon="12.36674829909">
        <ele>805.6</ele>
        <time>2018-02-26T14:19:04Z</time>
      </trkpt>
      <trkpt lat="62.062931642824" lon="12.366571357181">
        <ele>806.2</ele>
        <time>2018-02-26T14:19:20Z</time>
      </trkpt>
      <trkpt lat="62.063390384211" lon="12.36664352534">
        <ele>807.4</ele>
        <time>2018-02-26T14:19:38Z</time>
      </trkpt>
      <trkpt lat="62.063509071915" lon="12.366610500654">
        <ele>808.4</ele>
        <time>2018-02-26T14:19:43Z</time>
      </trkpt>
      <trkpt lat="62.063584509015" lon="12.366614775423">
        <ele>809.6</ele>
        <time>2018-02-26T14:19:47Z</time>
      </trkpt>
      <trkpt lat="62.063690707688" lon="12.366584516764">
        <ele>810.8</ele>
        <time>2018-02-26T14:19:52Z</time>
      </trkpt>
      <trkpt lat="62.064123465185" lon="12.36622945948">
        <ele>811</ele>
        <time>2018-02-26T14:20:10Z</time>
      </trkpt>
      <trkpt lat="62.064363271344" lon="12.365841293691">
        <ele>809.4</ele>
        <time>2018-02-26T14:20:18Z</time>
      </trkpt>
      <trkpt lat="62.064757220644" lon="12.365379283363">
        <ele>809</ele>
        <time>2018-02-26T14:20:32Z</time>
      </trkpt>
      <trkpt lat="62.065172124694" lon="12.36495960163">
        <ele>809.6</ele>
        <time>2018-02-26T14:20:51Z</time>
      </trkpt>
      <trkpt lat="62.065407320808" lon="12.364764135722">
        <ele>809.8</ele>
        <time>2018-02-26T14:21:00Z</time>
      </trkpt>
      <trkpt lat="62.065650144451" lon="12.364455597983">
        <ele>810.4</ele>
        <time>2018-02-26T14:21:12Z</time>
      </trkpt>
      <trkpt lat="62.065987767383" lon="12.3638305597">
        <ele>811.4</ele>
        <time>2018-02-26T14:21:29Z</time>
      </trkpt>
      <trkpt lat="62.066003609174" lon="12.363795690996">
        <ele>811.4</ele>
        <time>2018-02-26T14:21:30Z</time>
      </trkpt>
      <trkpt lat="62.066171247174" lon="12.363343068396">
        <ele>812.6</ele>
        <time>2018-02-26T14:21:42Z</time>
      </trkpt>
      <trkpt lat="62.066403928718" lon="12.362493227555">
        <ele>813.4</ele>
        <time>2018-02-26T14:22:00Z</time>
      </trkpt>
      <trkpt lat="62.06669628939" lon="12.361736425804">
        <ele>812.6</ele>
        <time>2018-02-26T14:22:15Z</time>
      </trkpt>
      <trkpt lat="62.067103230635" lon="12.361271649449">
        <ele>812.8</ele>
        <time>2018-02-26T14:22:31Z</time>
      </trkpt>
      <trkpt lat="62.067539424711" lon="12.36099999207">
        <ele>812.4</ele>
        <time>2018-02-26T14:22:48Z</time>
      </trkpt>
      <trkpt lat="62.06795944172" lon="12.360492803301">
        <ele>812.4</ele>
        <time>2018-02-26T14:23:04Z</time>
      </trkpt>
      <trkpt lat="62.068333190641" lon="12.359953260398">
        <ele>812.4</ele>
        <time>2018-02-26T14:23:20Z</time>
      </trkpt>
      <trkpt lat="62.068653043945" lon="12.35924733678">
        <ele>812.2</ele>
        <time>2018-02-26T14:23:38Z</time>
      </trkpt>
      <trkpt lat="62.068942806228" lon="12.358528085941">
        <ele>812.8</ele>
        <time>2018-02-26T14:23:53Z</time>
      </trkpt>
      <trkpt lat="62.069084460338" lon="12.358169927354">
        <ele>811.4</ele>
        <time>2018-02-26T14:23:59Z</time>
      </trkpt>
      <trkpt lat="62.069348490188" lon="12.357393931052">
        <ele>810.2</ele>
        <time>2018-02-26T14:24:10Z</time>
      </trkpt>
      <trkpt lat="62.069683933826" lon="12.356713153134">
        <ele>810.4</ele>
        <time>2018-02-26T14:24:26Z</time>
      </trkpt>
      <trkpt lat="62.069779068391" lon="12.356574013594">
        <ele>811.2</ele>
        <time>2018-02-26T14:24:31Z</time>
      </trkpt>
      <trkpt lat="62.069898091371" lon="12.35644359123">
        <ele>812.4</ele>
        <time>2018-02-26T14:24:37Z</time>
      </trkpt>
      <trkpt lat="62.070352725627" lon="12.356141172278">
        <ele>812.4</ele>
        <time>2018-02-26T14:24:51Z</time>
      </trkpt>
      <trkpt lat="62.070402681751" lon="12.35610077152">
        <ele>812</ele>
        <time>2018-02-26T14:24:52Z</time>
      </trkpt>
      <trkpt lat="62.070495385565" lon="12.355989543707">
        <ele>810.6</ele>
        <time>2018-02-26T14:24:54Z</time>
      </trkpt>
      <trkpt lat="62.070593621433" lon="12.355847302864">
        <ele>808.8</ele>
        <time>2018-02-26T14:24:56Z</time>
      </trkpt>
      <trkpt lat="62.070696215889" lon="12.355678156122">
        <ele>807.4</ele>
        <time>2018-02-26T14:24:58Z</time>
      </trkpt>
      <trkpt lat="62.070791853368" lon="12.355477744893">
        <ele>806</ele>
        <time>2018-02-26T14:25:00Z</time>
      </trkpt>
      <trkpt lat="62.07083527161" lon="12.355358554275">
        <ele>805.4</ele>
        <time>2018-02-26T14:25:01Z</time>
      </trkpt>
      <trkpt lat="62.070875169454" lon="12.355234418336">
        <ele>804.8</ele>
        <time>2018-02-26T14:25:02Z</time>
      </trkpt>
      <trkpt lat="62.07095094183" lon="12.354944739872">
        <ele>803.2</ele>
        <time>2018-02-26T14:25:04Z</time>
      </trkpt>
      <trkpt lat="62.071016823564" lon="12.354628406966">
        <ele>801.8</ele>
        <time>2018-02-26T14:25:06Z</time>
      </trkpt>
      <trkpt lat="62.071106509894" lon="12.354151644494">
        <ele>800.6</ele>
        <time>2018-02-26T14:25:09Z</time>
      </trkpt>
      <trkpt lat="62.071187227591" lon="12.353688963614">
        <ele>799.2</ele>
        <time>2018-02-26T14:25:12Z</time>
      </trkpt>
      <trkpt lat="62.07127615955" lon="12.353255032651">
        <ele>797.8</ele>
        <time>2018-02-26T14:25:15Z</time>
      </trkpt>
      <trkpt lat="62.071379508377" lon="12.352879020617">
        <ele>796.8</ele>
        <time>2018-02-26T14:25:18Z</time>
      </trkpt>
      <trkpt lat="62.071614453034" lon="12.351987186457">
        <ele>796</ele>
        <time>2018-02-26T14:25:26Z</time>
      </trkpt>
      <trkpt lat="62.07166507971" lon="12.351798509888">
        <ele>795.8</ele>
        <time>2018-02-26T14:25:28Z</time>
      </trkpt>
      <trkpt lat="62.071860629437" lon="12.351217644218">
        <ele>795.2</ele>
        <time>2018-02-26T14:25:34Z</time>
      </trkpt>
      <trkpt lat="62.072013934388" lon="12.350850097903">
        <ele>794.6</ele>
        <time>2018-02-26T14:25:39Z</time>
      </trkpt>
      <trkpt lat="62.072257093307" lon="12.349992797171">
        <ele>793.8</ele>
        <time>2018-02-26T14:25:51Z</time>
      </trkpt>
      <trkpt lat="62.072302187929" lon="12.349775370685">
        <ele>793.4</ele>
        <time>2018-02-26T14:25:54Z</time>
      </trkpt>
      <trkpt lat="62.072327585086" lon="12.349685684355">
        <ele>793</ele>
        <time>2018-02-26T14:25:55Z</time>
      </trkpt>
      <trkpt lat="62.072416852321" lon="12.34929885967">
        <ele>792.4</ele>
        <time>2018-02-26T14:26:00Z</time>
      </trkpt>
      <trkpt lat="62.07263318916" lon="12.348504423188">
        <ele>791.2</ele>
        <time>2018-02-26T14:26:09Z</time>
      </trkpt>
      <trkpt lat="62.072731844123" lon="12.348137882701">
        <ele>790.2</ele>
        <time>2018-02-26T14:26:13Z</time>
      </trkpt>
      <trkpt lat="62.072829744715" lon="12.347799086303">
        <ele>789.2</ele>
        <time>2018-02-26T14:26:17Z</time>
      </trkpt>
      <trkpt lat="62.072881125762" lon="12.347608984811">
        <ele>788</ele>
        <time>2018-02-26T14:26:19Z</time>
      </trkpt>
      <trkpt lat="62.072934769922" lon="12.347384768986">
        <ele>786.4</ele>
        <time>2018-02-26T14:26:21Z</time>
      </trkpt>
      <trkpt lat="62.07303468217" lon="12.347072794668">
        <ele>785.4</ele>
        <time>2018-02-26T14:26:24Z</time>
      </trkpt>
      <trkpt lat="62.073251941018" lon="12.346528474082">
        <ele>784.4</ele>
        <time>2018-02-26T14:26:30Z</time>
      </trkpt>
      <trkpt lat="62.073425027253" lon="12.346171488961">
        <ele>784.2</ele>
        <time>2018-02-26T14:26:35Z</time>
      </trkpt>
      <trkpt lat="62.073573386883" lon="12.345768151933">
        <ele>782.4</ele>
        <time>2018-02-26T14:26:39Z</time>
      </trkpt>
      <trkpt lat="62.073611775985" lon="12.345641585243">
        <ele>781.4</ele>
        <time>2018-02-26T14:26:40Z</time>
      </trkpt>
      <trkpt lat="62.073683105954" lon="12.345381243429">
        <ele>779.8</ele>
        <time>2018-02-26T14:26:42Z</time>
      </trkpt>
      <trkpt lat="62.073775558311" lon="12.344995340753">
        <ele>778.4</ele>
        <time>2018-02-26T14:26:45Z</time>
      </trkpt>
      <trkpt lat="62.074036067763" lon="12.344147260111">
        <ele>777.8</ele>
        <time>2018-02-26T14:26:54Z</time>
      </trkpt>
      <trkpt lat="62.074117288374" lon="12.34398138231">
        <ele>777.8</ele>
        <time>2018-02-26T14:26:57Z</time>
      </trkpt>
      <trkpt lat="62.074189624171" lon="12.343884571365">
        <ele>777.6</ele>
        <time>2018-02-26T14:26:59Z</time>
      </trkpt>
      <trkpt lat="62.074424485009" lon="12.343667396336">
        <ele>779.6</ele>
        <time>2018-02-26T14:27:08Z</time>
      </trkpt>
      <trkpt lat="62.074585585127" lon="12.343551642297">
        <ele>780.6</ele>
        <time>2018-02-26T14:27:14Z</time>
      </trkpt>
      <trkpt lat="62.074737968069" lon="12.343383585202">
        <ele>781.8</ele>
        <time>2018-02-26T14:27:23Z</time>
      </trkpt>
      <trkpt lat="62.074780464302" lon="12.343307309912">
        <ele>782.8</ele>
        <time>2018-02-26T14:27:26Z</time>
      </trkpt>
      <trkpt lat="62.074920274394" lon="12.343079322232">
        <ele>783.8</ele>
        <time>2018-02-26T14:27:36Z</time>
      </trkpt>
      <trkpt lat="62.07532797001" lon="12.342624017424">
        <ele>784.8</ele>
        <time>2018-02-26T14:27:55Z</time>
      </trkpt>
      <trkpt lat="62.075354875909" lon="12.34260507433">
        <ele>784.8</ele>
        <time>2018-02-26T14:27:56Z</time>
      </trkpt>
      <trkpt lat="62.07578394537" lon="12.342240377861">
        <ele>784.8</ele>
        <time>2018-02-26T14:28:12Z</time>
      </trkpt>
      <trkpt lat="62.07616951277" lon="12.341856067746">
        <ele>783.6</ele>
        <time>2018-02-26T14:28:24Z</time>
      </trkpt>
      <trkpt lat="62.076611825633" lon="12.341555576631">
        <ele>782.4</ele>
        <time>2018-02-26T14:28:36Z</time>
      </trkpt>
      <trkpt lat="62.076948358918" lon="12.34124720653">
        <ele>781.4</ele>
        <time>2018-02-26T14:28:45Z</time>
      </trkpt>
      <trkpt lat="62.077169557259" lon="12.340813946119">
        <ele>780.4</ele>
        <time>2018-02-26T14:28:53Z</time>
      </trkpt>
      <trkpt lat="62.077275420656" lon="12.340498619041">
        <ele>778.8</ele>
        <time>2018-02-26T14:28:57Z</time>
      </trkpt>
      <trkpt lat="62.077302326555" lon="12.340390911626">
        <ele>778.2</ele>
        <time>2018-02-26T14:28:58Z</time>
      </trkpt>
      <trkpt lat="62.077330070644" lon="12.340270547542">
        <ele>777.6</ele>
        <time>2018-02-26T14:28:59Z</time>
      </trkpt>
      <trkpt lat="62.077393521627" lon="12.340038285093">
        <ele>776.4</ele>
        <time>2018-02-26T14:29:01Z</time>
      </trkpt>
      <trkpt lat="62.077432832738" lon="12.339931918782">
        <ele>775.8</ele>
        <time>2018-02-26T14:29:02Z</time>
      </trkpt>
      <trkpt lat="62.077473233496" lon="12.339832090353">
        <ele>775.2</ele>
        <time>2018-02-26T14:29:03Z</time>
      </trkpt>
      <trkpt lat="62.077565434396" lon="12.339636624445">
        <ele>774.2</ele>
        <time>2018-02-26T14:29:05Z</time>
      </trkpt>
      <trkpt lat="62.077673057992" lon="12.339459598717">
        <ele>772.8</ele>
        <time>2018-02-26T14:29:07Z</time>
      </trkpt>
      <trkpt lat="62.077776155362" lon="12.339261869696">
        <ele>771.6</ele>
        <time>2018-02-26T14:29:09Z</time>
      </trkpt>
      <trkpt lat="62.077890149202" lon="12.339038072966">
        <ele>770.2</ele>
        <time>2018-02-26T14:29:11Z</time>
      </trkpt>
      <trkpt lat="62.077947649036" lon="12.338947296989">
        <ele>769.6</ele>
        <time>2018-02-26T14:29:12Z</time>
      </trkpt>
      <trkpt lat="62.078012189666" lon="12.338879403599">
        <ele>769</ele>
        <time>2018-02-26T14:29:13Z</time>
      </trkpt>
      <trkpt lat="62.078073796631" lon="12.338826681448">
        <ele>768.6</ele>
        <time>2018-02-26T14:29:14Z</time>
      </trkpt>
      <trkpt lat="62.078193993077" lon="12.338756608764">
        <ele>768</ele>
        <time>2018-02-26T14:29:16Z</time>
      </trkpt>
      <trkpt lat="62.078351908073" lon="12.338693576876">
        <ele>767.6</ele>
        <time>2018-02-26T14:29:19Z</time>
      </trkpt>
      <trkpt lat="62.078452407054" lon="12.338714783083">
        <ele>767.6</ele>
        <time>2018-02-26T14:29:21Z</time>
      </trkpt>
      <trkpt lat="62.078803441026" lon="12.338799104997">
        <ele>769</ele>
        <time>2018-02-26T14:29:29Z</time>
      </trkpt>
      <trkpt lat="62.078992369052" lon="12.338692235772">
        <ele>770</ele>
        <time>2018-02-26T14:29:36Z</time>
      </trkpt>
      <trkpt lat="62.079182889639" lon="12.338265094148">
        <ele>768.8</ele>
        <time>2018-02-26T14:29:43Z</time>
      </trkpt>
      <trkpt lat="62.079273246521" lon="12.337857398532">
        <ele>767.2</ele>
        <time>2018-02-26T14:29:47Z</time>
      </trkpt>
      <trkpt lat="62.07930350518" lon="12.337577107796">
        <ele>765.6</ele>
        <time>2018-02-26T14:29:49Z</time>
      </trkpt>
      <trkpt lat="62.079334685848" lon="12.337293296662">
        <ele>764.4</ele>
        <time>2018-02-26T14:29:51Z</time>
      </trkpt>
      <trkpt lat="62.079400232306" lon="12.336873279653">
        <ele>762.8</ele>
        <time>2018-02-26T14:29:54Z</time>
      </trkpt>
      <trkpt lat="62.079452786819" lon="12.336593156555">
        <ele>761.8</ele>
        <time>2018-02-26T14:29:56Z</time>
      </trkpt>
      <trkpt lat="62.079512130671" lon="12.336303394272">
        <ele>760.6</ele>
        <time>2018-02-26T14:29:58Z</time>
      </trkpt>
      <trkpt lat="62.079572396532" lon="12.336015978921">
        <ele>759.4</ele>
        <time>2018-02-26T14:30:00Z</time>
      </trkpt>
      <trkpt lat="62.079656131713" lon="12.335577186456">
        <ele>758.2</ele>
        <time>2018-02-26T14:30:03Z</time>
      </trkpt>
      <trkpt lat="62.079758809988" lon="12.334901018583">
        <ele>757.2</ele>
        <time>2018-02-26T14:30:08Z</time>
      </trkpt>
      <trkpt lat="62.079857967865" lon="12.334325601148">
        <ele>757.2</ele>
        <time>2018-02-26T14:30:14Z</time>
      </trkpt>
      <trkpt lat="62.079946732186" lon="12.334162657012">
        <ele>758.4</ele>
        <time>2018-02-26T14:30:19Z</time>
      </trkpt>
      <trkpt lat="62.080032981937" lon="12.334087471369">
        <ele>759.4</ele>
        <time>2018-02-26T14:30:24Z</time>
      </trkpt>
      <trkpt lat="62.080149490347" lon="12.333980350687">
        <ele>760.6</ele>
        <time>2018-02-26T14:30:30Z</time>
      </trkpt>
      <trkpt lat="62.080311512474" lon="12.333777927802">
        <ele>761.8</ele>
        <time>2018-02-26T14:30:38Z</time>
      </trkpt>
      <trkpt lat="62.080438665897" lon="12.333564776085">
        <ele>762.8</ele>
        <time>2018-02-26T14:30:45Z</time>
      </trkpt>
      <trkpt lat="62.080820796718" lon="12.333029340313">
        <ele>763.6</ele>
        <time>2018-02-26T14:31:01Z</time>
      </trkpt>
      <trkpt lat="62.081216673855" lon="12.332551152918">
        <ele>763.6</ele>
        <time>2018-02-26T14:31:16Z</time>
      </trkpt>
      <trkpt lat="62.081256823156" lon="12.332437242897">
        <ele>763.8</ele>
        <time>2018-02-26T14:31:18Z</time>
      </trkpt>
      <trkpt lat="62.081467795579" lon="12.331588659341">
        <ele>763.2</ele>
        <time>2018-02-26T14:31:32Z</time>
      </trkpt>
      <trkpt lat="62.081527726164" lon="12.33144625086">
        <ele>762.8</ele>
        <time>2018-02-26T14:31:35Z</time>
      </trkpt>
      <trkpt lat="62.081796952792" lon="12.330721635605">
        <ele>761.6</ele>
        <time>2018-02-26T14:31:46Z</time>
      </trkpt>
      <trkpt lat="62.082033238553" lon="12.330014789978">
        <ele>760.4</ele>
        <time>2018-02-26T14:31:57Z</time>
      </trkpt>
      <trkpt lat="62.082102137771" lon="12.329695020493">
        <ele>759</ele>
        <time>2018-02-26T14:32:01Z</time>
      </trkpt>
      <trkpt lat="62.082209761367" lon="12.32900460339">
        <ele>757.8</ele>
        <time>2018-02-26T14:32:09Z</time>
      </trkpt>
      <trkpt lat="62.082255107446" lon="12.328760187186">
        <ele>756</ele>
        <time>2018-02-26T14:32:11Z</time>
      </trkpt>
      <trkpt lat="62.082281510431" lon="12.328633117582">
        <ele>754.8</ele>
        <time>2018-02-26T14:32:12Z</time>
      </trkpt>
      <trkpt lat="62.082332891478" lon="12.328358107443">
        <ele>753</ele>
        <time>2018-02-26T14:32:14Z</time>
      </trkpt>
      <trkpt lat="62.08236541325" lon="12.328077062336">
        <ele>751.6</ele>
        <time>2018-02-26T14:32:16Z</time>
      </trkpt>
      <trkpt lat="62.082399359945" lon="12.327496615761">
        <ele>751.2</ele>
        <time>2018-02-26T14:32:21Z</time>
      </trkpt>
      <trkpt lat="62.082474210312" lon="12.32621007793">
        <ele>751.6</ele>
        <time>2018-02-26T14:32:36Z</time>
      </trkpt>
      <trkpt lat="62.082489046275" lon="12.325943449691">
        <ele>750.4</ele>
        <time>2018-02-26T14:32:39Z</time>
      </trkpt>
      <trkpt lat="62.082499104555" lon="12.325592248081">
        <ele>750</ele>
        <time>2018-02-26T14:32:43Z</time>
      </trkpt>
      <trkpt lat="62.082731953737" lon="12.324810887363">
        <ele>750.4</ele>
        <time>2018-02-26T14:32:56Z</time>
      </trkpt>
      <trkpt lat="62.083079383492" lon="12.324189369478">
        <ele>750.8</ele>
        <time>2018-02-26T14:33:13Z</time>
      </trkpt>
      <trkpt lat="62.083181139758" lon="12.323284124278">
        <ele>750</ele>
        <time>2018-02-26T14:33:26Z</time>
      </trkpt>
      <trkpt lat="62.083164459777" lon="12.322959158015">
        <ele>749.4</ele>
        <time>2018-02-26T14:33:30Z</time>
      </trkpt>
      <trkpt lat="62.083128585245" lon="12.321949641979">
        <ele>748.4</ele>
        <time>2018-02-26T14:33:44Z</time>
      </trkpt>
      <trkpt lat="62.083122634096" lon="12.321864481875">
        <ele>748.2</ele>
        <time>2018-02-26T14:33:45Z</time>
      </trkpt>
      <trkpt lat="62.083116766766" lon="12.32153381592">
        <ele>747</ele>
        <time>2018-02-26T14:33:49Z</time>
      </trkpt>
      <trkpt lat="62.083406109954" lon="12.320817079651">
        <ele>745.8</ele>
        <time>2018-02-26T14:34:01Z</time>
      </trkpt>
      <trkpt lat="62.083380964254" lon="12.319845365984">
        <ele>745</ele>
        <time>2018-02-26T14:34:16Z</time>
      </trkpt>
      <trkpt lat="62.08333687546" lon="12.31957245132">
        <ele>744.8</ele>
        <time>2018-02-26T14:34:20Z</time>
      </trkpt>
      <trkpt lat="62.083287170793" lon="12.319091497898">
        <ele>743.8</ele>
        <time>2018-02-26T14:34:26Z</time>
      </trkpt>
      <trkpt lat="62.08329412777" lon="12.318992507659">
        <ele>743.2</ele>
        <time>2018-02-26T14:34:27Z</time>
      </trkpt>
      <trkpt lat="62.083294295408" lon="12.318784217444">
        <ele>742</ele>
        <time>2018-02-26T14:34:29Z</time>
      </trkpt>
      <trkpt lat="62.083296223245" lon="12.318680784798">
        <ele>741.4</ele>
        <time>2018-02-26T14:34:30Z</time>
      </trkpt>
      <trkpt lat="62.083347855749" lon="12.317796578167">
        <ele>740.8</ele>
        <time>2018-02-26T14:34:40Z</time>
      </trkpt>
      <trkpt lat="62.083373169087" lon="12.317524669331">
        <ele>739.6</ele>
        <time>2018-02-26T14:34:44Z</time>
      </trkpt>
      <trkpt lat="62.083368894318" lon="12.317329371061">
        <ele>738.6</ele>
        <time>2018-02-26T14:34:48Z</time>
      </trkpt>
      <trkpt lat="62.083350118862" lon="12.317276145996">
        <ele>737.6</ele>
        <time>2018-02-26T14:36:01Z</time>
      </trkpt>
      <trkpt lat="62.083350873233" lon="12.317316295297">
        <ele>737.6</ele>
        <time>2018-02-26T14:36:04Z</time>
      </trkpt>
      <trkpt lat="62.08336369754" lon="12.317933622232">
        <ele>738.8</ele>
        <time>2018-02-26T14:36:17Z</time>
      </trkpt>
      <trkpt lat="62.083342491333" lon="12.318337545993">
        <ele>739.8</ele>
        <time>2018-02-26T14:36:25Z</time>
      </trkpt>
      <trkpt lat="62.083320782212" lon="12.318813386456">
        <ele>740.8</ele>
        <time>2018-02-26T14:36:34Z</time>
      </trkpt>
      <trkpt lat="62.083347269016" lon="12.319260728459">
        <ele>742</ele>
        <time>2018-02-26T14:36:42Z</time>
      </trkpt>
      <trkpt lat="62.083377360037" lon="12.319492907089">
        <ele>743</ele>
        <time>2018-02-26T14:36:47Z</time>
      </trkpt>
      <trkpt lat="62.083424717772" lon="12.319943601852">
        <ele>744</ele>
        <time>2018-02-26T14:36:56Z</time>
      </trkpt>
      <trkpt lat="62.083408037791" lon="12.3207895032">
        <ele>745</ele>
        <time>2018-02-26T14:37:13Z</time>
      </trkpt>
      <trkpt lat="62.083170159469" lon="12.321574551954">
        <ele>745.6</ele>
        <time>2018-02-26T14:37:32Z</time>
      </trkpt>
      <trkpt lat="62.083157083705" lon="12.321772783889">
        <ele>746</ele>
        <time>2018-02-26T14:37:37Z</time>
      </trkpt>
      <trkpt lat="62.083171416754" lon="12.322429757211">
        <ele>747.2</ele>
        <time>2018-02-26T14:37:50Z</time>
      </trkpt>
      <trkpt lat="62.083213242435" lon="12.323382527784">
        <ele>748.4</ele>
        <time>2018-02-26T14:38:09Z</time>
      </trkpt>
      <trkpt lat="62.083197316825" lon="12.323715289214">
        <ele>750.4</ele>
        <time>2018-02-26T14:38:15Z</time>
      </trkpt>
      <trkpt lat="62.082956588657" lon="12.324562950761">
        <ele>751.2</ele>
        <time>2018-02-26T14:38:33Z</time>
      </trkpt>
      <trkpt lat="62.082633550231" lon="12.32523693934">
        <ele>750.6</ele>
        <time>2018-02-26T14:38:46Z</time>
      </trkpt>
      <trkpt lat="62.082576888587" lon="12.325604234198">
        <ele>749.4</ele>
        <time>2018-02-26T14:38:51Z</time>
      </trkpt>
      <trkpt lat="62.082519221115" lon="12.326425911855">
        <ele>750.6</ele>
        <time>2018-02-26T14:39:07Z</time>
      </trkpt>
      <trkpt lat="62.082425092378" lon="12.327365187569">
        <ele>751.2</ele>
        <time>2018-02-26T14:39:25Z</time>
      </trkpt>
      <trkpt lat="62.082378572833" lon="12.328068764255">
        <ele>751.6</ele>
        <time>2018-02-26T14:39:39Z</time>
      </trkpt>
      <trkpt lat="62.082308081054" lon="12.328623897492">
        <ele>753</ele>
        <time>2018-02-26T14:39:52Z</time>
      </trkpt>
      <trkpt lat="62.082282683897" lon="12.328810478586">
        <ele>754</ele>
        <time>2018-02-26T14:39:57Z</time>
      </trkpt>
      <trkpt lat="62.082249491573" lon="12.329008375245">
        <ele>755</ele>
        <time>2018-02-26T14:40:02Z</time>
      </trkpt>
      <trkpt lat="62.082233733601" lon="12.329156902513">
        <ele>756.2</ele>
        <time>2018-02-26T14:40:06Z</time>
      </trkpt>
      <trkpt lat="62.0821852024" lon="12.329588905639">
        <ele>757.4</ele>
        <time>2018-02-26T14:40:15Z</time>
      </trkpt>
      <trkpt lat="62.082121416141" lon="12.329912279341">
        <ele>758.4</ele>
        <time>2018-02-26T14:40:23Z</time>
      </trkpt>
      <trkpt lat="62.081963333507" lon="12.330445032905">
        <ele>759.4</ele>
        <time>2018-02-26T14:40:36Z</time>
      </trkpt>
      <trkpt lat="62.081807765443" lon="12.330832863418">
        <ele>760.6</ele>
        <time>2018-02-26T14:40:46Z</time>
      </trkpt>
      <trkpt lat="62.081617161037" lon="12.331321109093">
        <ele>761.6</ele>
        <time>2018-02-26T14:41:00Z</time>
      </trkpt>
      <trkpt lat="62.081336786482" lon="12.332135159221">
        <ele>762.4</ele>
        <time>2018-02-26T14:41:20Z</time>
      </trkpt>
      <trkpt lat="62.081235952225" lon="12.332408157704">
        <ele>762.6</ele>
        <time>2018-02-26T14:41:26Z</time>
      </trkpt>
      <trkpt lat="62.080819371795" lon="12.33291308336">
        <ele>763.4</ele>
        <time>2018-02-26T14:41:44Z</time>
      </trkpt>
      <trkpt lat="62.080435564594" lon="12.333474754479">
        <ele>761.6</ele>
        <time>2018-02-26T14:41:58Z</time>
      </trkpt>
      <trkpt lat="62.080206403448" lon="12.333852359074">
        <ele>760.4</ele>
        <time>2018-02-26T14:42:05Z</time>
      </trkpt>
      <trkpt lat="62.080115040738" lon="12.333937938273">
        <ele>759</ele>
        <time>2018-02-26T14:42:07Z</time>
      </trkpt>
      <trkpt lat="62.079968106031" lon="12.334103899893">
        <ele>757.6</ele>
        <time>2018-02-26T14:42:10Z</time>
      </trkpt>
      <trkpt lat="62.079923179047" lon="12.334178666441">
        <ele>757</ele>
        <time>2018-02-26T14:42:11Z</time>
      </trkpt>
      <trkpt lat="62.079882610651" lon="12.334268604228">
        <ele>756.4</ele>
        <time>2018-02-26T14:42:12Z</time>
      </trkpt>
      <trkpt lat="62.079842209893" lon="12.334391482882">
        <ele>755.8</ele>
        <time>2018-02-26T14:42:13Z</time>
      </trkpt>
      <trkpt lat="62.079737939057" lon="12.334820468524">
        <ele>755.6</ele>
        <time>2018-02-26T14:42:17Z</time>
      </trkpt>
      <trkpt lat="62.079627297977" lon="12.335578946655">
        <ele>757.4</ele>
        <time>2018-02-26T14:42:31Z</time>
      </trkpt>
      <trkpt lat="62.07954406571" lon="12.335957976173">
        <ele>758.6</ele>
        <time>2018-02-26T14:42:39Z</time>
      </trkpt>
      <trkpt lat="62.079464605298" lon="12.336298784227">
        <ele>759.6</ele>
        <time>2018-02-26T14:42:48Z</time>
      </trkpt>
      <trkpt lat="62.079391766587" lon="12.33659106108">
        <ele>760.8</ele>
        <time>2018-02-26T14:42:55Z</time>
      </trkpt>
      <trkpt lat="62.079345833775" lon="12.336884008485">
        <ele>761.8</ele>
        <time>2018-02-26T14:43:02Z</time>
      </trkpt>
      <trkpt lat="62.079301325886" lon="12.337184415781">
        <ele>762.8</ele>
        <time>2018-02-26T14:43:09Z</time>
      </trkpt>
      <trkpt lat="62.079275509634" lon="12.337588423361">
        <ele>764</ele>
        <time>2018-02-26T14:43:20Z</time>
      </trkpt>
      <trkpt lat="62.079249693382" lon="12.337796881214">
        <ele>765</ele>
        <time>2018-02-26T14:43:25Z</time>
      </trkpt>
      <trkpt lat="62.079178279594" lon="12.338179850225">
        <ele>766</ele>
        <time>2018-02-26T14:43:36Z</time>
      </trkpt>
      <trkpt lat="62.079099070639" lon="12.338410603932">
        <ele>767.2</ele>
        <time>2018-02-26T14:43:42Z</time>
      </trkpt>
      <trkpt lat="62.078938724892" lon="12.338631718454">
        <ele>768.2</ele>
        <time>2018-02-26T14:43:51Z</time>
      </trkpt>
      <trkpt lat="62.078724148252" lon="12.338722829707">
        <ele>767.2</ele>
        <time>2018-02-26T14:43:58Z</time>
      </trkpt>
      <trkpt lat="62.078268843444" lon="12.33867899237">
        <ele>766.8</ele>
        <time>2018-02-26T14:44:12Z</time>
      </trkpt>
      <trkpt lat="62.077839522526" lon="12.338995576733">
        <ele>768.2</ele>
        <time>2018-02-26T14:44:32Z</time>
      </trkpt>
      <trkpt lat="62.077730809283" lon="12.339222893861">
        <ele>769.2</ele>
        <time>2018-02-26T14:44:40Z</time>
      </trkpt>
      <trkpt lat="62.077661658608" lon="12.339336049511">
        <ele>770.4</ele>
        <time>2018-02-26T14:44:46Z</time>
      </trkpt>
      <trkpt lat="62.077563674197" lon="12.339494970335">
        <ele>771.6</ele>
        <time>2018-02-26T14:44:53Z</time>
      </trkpt>
      <trkpt lat="62.077484884337" lon="12.339707367681">
        <ele>772.6</ele>
        <time>2018-02-26T14:44:59Z</time>
      </trkpt>
      <trkpt lat="62.077429731435" lon="12.339876011509">
        <ele>773.6</ele>
        <time>2018-02-26T14:45:04Z</time>
      </trkpt>
      <trkpt lat="62.077354210516" lon="12.340144819042">
        <ele>774.6</ele>
        <time>2018-02-26T14:45:12Z</time>
      </trkpt>
      <trkpt lat="62.07730526022" lon="12.340344224443">
        <ele>775.8</ele>
        <time>2018-02-26T14:45:18Z</time>
      </trkpt>
      <trkpt lat="62.077191601656" lon="12.340647565404">
        <ele>776.8</ele>
        <time>2018-02-26T14:45:31Z</time>
      </trkpt>
      <trkpt lat="62.07712588756" lon="12.340810677178">
        <ele>778</ele>
        <time>2018-02-26T14:45:38Z</time>
      </trkpt>
      <trkpt lat="62.076890942903" lon="12.341263886511">
        <ele>779</ele>
        <time>2018-02-26T14:45:52Z</time>
      </trkpt>
      <trkpt lat="62.076511410471" lon="12.341612908827">
        <ele>780</ele>
        <time>2018-02-26T14:46:10Z</time>
      </trkpt>
      <trkpt lat="62.076254253779" lon="12.341803848509">
        <ele>781</ele>
        <time>2018-02-26T14:46:22Z</time>
      </trkpt>
      <trkpt lat="62.075971280835" lon="12.342069890015">
        <ele>782</ele>
        <time>2018-02-26T14:46:35Z</time>
      </trkpt>
      <trkpt lat="62.075532739827" lon="12.34247599307">
        <ele>782.8</ele>
        <time>2018-02-26T14:46:52Z</time>
      </trkpt>
      <trkpt lat="62.075109370058" lon="12.342880755021">
        <ele>782.8</ele>
        <time>2018-02-26T14:47:06Z</time>
      </trkpt>
      <trkpt lat="62.074709888704" lon="12.343420884657">
        <ele>780.6</ele>
        <time>2018-02-26T14:47:19Z</time>
      </trkpt>
      <trkpt lat="62.074611401379" lon="12.343517360326">
        <ele>779</ele>
        <time>2018-02-26T14:47:21Z</time>
      </trkpt>
      <trkpt lat="62.074497575177" lon="12.343616099108">
        <ele>777.4</ele>
        <time>2018-02-26T14:47:23Z</time>
      </trkpt>
      <trkpt lat="62.07438500626" lon="12.343703773782">
        <ele>776.4</ele>
        <time>2018-02-26T14:47:25Z</time>
      </trkpt>
      <trkpt lat="62.074208483446" lon="12.343876189465">
        <ele>775</ele>
        <time>2018-02-26T14:47:28Z</time>
      </trkpt>
      <trkpt lat="62.074088119362" lon="12.344047264044">
        <ele>774.6</ele>
        <time>2018-02-26T14:47:30Z</time>
      </trkpt>
      <trkpt lat="62.073817300173" lon="12.344809430211">
        <ele>776.2</ele>
        <time>2018-02-26T14:47:42Z</time>
      </trkpt>
      <trkpt lat="62.073693583329" lon="12.345350733313">
        <ele>777.2</ele>
        <time>2018-02-26T14:47:56Z</time>
      </trkpt>
      <trkpt lat="62.073525526234" lon="12.345847444707">
        <ele>778.2</ele>
        <time>2018-02-26T14:48:09Z</time>
      </trkpt>
      <trkpt lat="62.073422931778" lon="12.346077779319">
        <ele>779.4</ele>
        <time>2018-02-26T14:48:16Z</time>
      </trkpt>
      <trkpt lat="62.073373562387" lon="12.346219265791">
        <ele>780.4</ele>
        <time>2018-02-26T14:48:20Z</time>
      </trkpt>
      <trkpt lat="62.073207181672" lon="12.346665769604">
        <ele>781.6</ele>
        <time>2018-02-26T14:48:32Z</time>
      </trkpt>
      <trkpt lat="62.073136522255" lon="12.346808764818">
        <ele>781.8</ele>
        <time>2018-02-26T14:48:37Z</time>
      </trkpt>
      <trkpt lat="62.073053206169" lon="12.347062652569">
        <ele>782.6</ele>
        <time>2018-02-26T14:48:46Z</time>
      </trkpt>
      <trkpt lat="62.072951533722" lon="12.347414440912">
        <ele>783.6</ele>
        <time>2018-02-26T14:48:57Z</time>
      </trkpt>
      <trkpt lat="62.072896632277" lon="12.347667658111">
        <ele>784.6</ele>
        <time>2018-02-26T14:49:04Z</time>
      </trkpt>
      <trkpt lat="62.072842988117" lon="12.347858513974">
        <ele>785.6</ele>
        <time>2018-02-26T14:49:16Z</time>
      </trkpt>
      <trkpt lat="62.072832091647" lon="12.34792422807">
        <ele>785.8</ele>
        <time>2018-02-26T14:49:18Z</time>
      </trkpt>
      <trkpt lat="62.072775597641" lon="12.348171745577">
        <ele>787</ele>
        <time>2018-02-26T14:49:25Z</time>
      </trkpt>
      <trkpt lat="62.07262061631" lon="12.348809105253">
        <ele>788</ele>
        <time>2018-02-26T14:49:42Z</time>
      </trkpt>
      <trkpt lat="62.072517770397" lon="12.349160390682">
        <ele>789.2</ele>
        <time>2018-02-26T14:49:52Z</time>
      </trkpt>
      <trkpt lat="62.072426407687" lon="12.34952098002">
        <ele>790.2</ele>
        <time>2018-02-26T14:50:01Z</time>
      </trkpt>
      <trkpt lat="62.072236222376" lon="12.350433433654">
        <ele>790.4</ele>
        <time>2018-02-26T14:50:22Z</time>
      </trkpt>
      <trkpt lat="62.071925253886" lon="12.351164754429">
        <ele>791.2</ele>
        <time>2018-02-26T14:50:42Z</time>
      </trkpt>
      <trkpt lat="62.071908657724" lon="12.351213956182">
        <ele>791.2</ele>
        <time>2018-02-26T14:50:43Z</time>
      </trkpt>
      <trkpt lat="62.071640688381" lon="12.352011829243">
        <ele>792.2</ele>
        <time>2018-02-26T14:51:04Z</time>
      </trkpt>
      <trkpt lat="62.071623756943" lon="12.352050134526">
        <ele>792.4</ele>
        <time>2018-02-26T14:51:05Z</time>
      </trkpt>
      <trkpt lat="62.071567095299" lon="12.352159183045">
        <ele>792.8</ele>
        <time>2018-02-26T14:51:09Z</time>
      </trkpt>
      <trkpt lat="62.071526443084" lon="12.352149962955">
        <ele>793</ele>
        <time>2018-02-26T14:53:17Z</time>
      </trkpt>
      <trkpt lat="62.071523593238" lon="12.352156417018">
        <ele>793.4</ele>
        <time>2018-02-26T14:53:19Z</time>
      </trkpt>
      <trkpt lat="62.071511271845" lon="12.352196817776">
        <ele>793.2</ele>
        <time>2018-02-26T14:53:21Z</time>
      </trkpt>
      <trkpt lat="62.071497860805" lon="12.352256915999">
        <ele>793.4</ele>
        <time>2018-02-26T14:53:23Z</time>
      </trkpt>
      <trkpt lat="62.071382022947" lon="12.352814647625">
        <ele>794.4</ele>
        <time>2018-02-26T14:53:35Z</time>
      </trkpt>
      <trkpt lat="62.071281859242" lon="12.353088232841">
        <ele>795.6</ele>
        <time>2018-02-26T14:53:42Z</time>
      </trkpt>
      <trkpt lat="62.071191921455" lon="12.353437338976">
        <ele>796.6</ele>
        <time>2018-02-26T14:53:50Z</time>
      </trkpt>
      <trkpt lat="62.071092260664" lon="12.353762975791">
        <ele>797.6</ele>
        <time>2018-02-26T14:53:58Z</time>
      </trkpt>
      <trkpt lat="62.071009866587" lon="12.354224650843">
        <ele>798.8</ele>
        <time>2018-02-26T14:54:09Z</time>
      </trkpt>
      <trkpt lat="62.070888245218" lon="12.354894029377">
        <ele>799.8</ele>
        <time>2018-02-26T14:54:25Z</time>
      </trkpt>
      <trkpt lat="62.070857986559" lon="12.355101397583">
        <ele>801</ele>
        <time>2018-02-26T14:54:31Z</time>
      </trkpt>
      <trkpt lat="62.070811299376" lon="12.355290996161">
        <ele>802.2</ele>
        <time>2018-02-26T14:54:36Z</time>
      </trkpt>
      <trkpt lat="62.070740807597" lon="12.355537172564">
        <ele>803.4</ele>
        <time>2018-02-26T14:54:43Z</time>
      </trkpt>
      <trkpt lat="62.070639302788" lon="12.355727357875">
        <ele>804.6</ele>
        <time>2018-02-26T14:54:50Z</time>
      </trkpt>
      <trkpt lat="62.070565458249" lon="12.355871526555">
        <ele>805.6</ele>
        <time>2018-02-26T14:54:55Z</time>
      </trkpt>
      <trkpt lat="62.070443250147" lon="12.3560353927">
        <ele>806.8</ele>
        <time>2018-02-26T14:55:02Z</time>
      </trkpt>
      <trkpt lat="62.070356581301" lon="12.356148883626">
        <ele>807.8</ele>
        <time>2018-02-26T14:55:07Z</time>
      </trkpt>
      <trkpt lat="62.070209395137" lon="12.356262374552">
        <ele>809</ele>
        <time>2018-02-26T14:55:15Z</time>
      </trkpt>
      <trkpt lat="62.070026166803" lon="12.356348289027">
        <ele>810</ele>
        <time>2018-02-26T14:55:24Z</time>
      </trkpt>
      <trkpt lat="62.069678737048" lon="12.356796720677">
        <ele>808.4</ele>
        <time>2018-02-26T14:55:38Z</time>
      </trkpt>
      <trkpt lat="62.069602377939" lon="12.356923119729">
        <ele>807.2</ele>
        <time>2018-02-26T14:55:40Z</time>
      </trkpt>
      <trkpt lat="62.06926534174" lon="12.357588474951">
        <ele>807.4</ele>
        <time>2018-02-26T14:55:53Z</time>
      </trkpt>
      <trkpt lat="62.06911698211" lon="12.35801938843">
        <ele>808.4</ele>
        <time>2018-02-26T14:56:04Z</time>
      </trkpt>
      <trkpt lat="62.069008101229" lon="12.358286016669">
        <ele>809.4</ele>
        <time>2018-02-26T14:56:12Z</time>
      </trkpt>
      <trkpt lat="62.068700820775" lon="12.359054385442">
        <ele>809.6</ele>
        <time>2018-02-26T14:56:31Z</time>
      </trkpt>
      <trkpt lat="62.068379961643" lon="12.359796770325">
        <ele>808.8</ele>
        <time>2018-02-26T14:56:46Z</time>
      </trkpt>
      <trkpt lat="62.06802901149" lon="12.360430944879">
        <ele>808.4</ele>
        <time>2018-02-26T14:57:03Z</time>
      </trkpt>
      <trkpt lat="62.067638163493" lon="12.360968057031">
        <ele>809.2</ele>
        <time>2018-02-26T14:57:20Z</time>
      </trkpt>
      <trkpt lat="62.067200460675" lon="12.361282126824">
        <ele>808.4</ele>
        <time>2018-02-26T14:57:35Z</time>
      </trkpt>
      <trkpt lat="62.06679351943" lon="12.36168814606">
        <ele>809.2</ele>
        <time>2018-02-26T14:57:52Z</time>
      </trkpt>
      <trkpt lat="62.066754711233" lon="12.361748579559">
        <ele>809.4</ele>
        <time>2018-02-26T14:57:54Z</time>
      </trkpt>
      <trkpt lat="62.066421446889" lon="12.362406642528">
        <ele>810</ele>
        <time>2018-02-26T14:58:14Z</time>
      </trkpt>
      <trkpt lat="62.066201924928" lon="12.363291519711">
        <ele>809.8</ele>
        <time>2018-02-26T14:58:31Z</time>
      </trkpt>
      <trkpt lat="62.066142078162" lon="12.36349444551">
        <ele>809.4</ele>
        <time>2018-02-26T14:58:34Z</time>
      </trkpt>
      <trkpt lat="62.066093798418" lon="12.363634339421">
        <ele>808.2</ele>
        <time>2018-02-26T14:58:36Z</time>
      </trkpt>
      <trkpt lat="62.066042585009" lon="12.363777502273">
        <ele>807.6</ele>
        <time>2018-02-26T14:58:38Z</time>
      </trkpt>
      <trkpt lat="62.065985923365" lon="12.363914211062">
        <ele>807.2</ele>
        <time>2018-02-26T14:58:40Z</time>
      </trkpt>
      <trkpt lat="62.065631536633" lon="12.364510499428">
        <ele>806.8</ele>
        <time>2018-02-26T14:58:52Z</time>
      </trkpt>
      <trkpt lat="62.065217135497" lon="12.36497720362">
        <ele>806.6</ele>
        <time>2018-02-26T14:59:05Z</time>
      </trkpt>
      <trkpt lat="62.065004989608" lon="12.365209968983">
        <ele>806</ele>
        <time>2018-02-26T14:59:12Z</time>
      </trkpt>
      <trkpt lat="62.064604083331" lon="12.365676505537">
        <ele>805.8</ele>
        <time>2018-02-26T14:59:26Z</time>
      </trkpt>
      <trkpt lat="62.064214073524" lon="12.36622107758">
        <ele>807.2</ele>
        <time>2018-02-26T14:59:43Z</time>
      </trkpt>
      <trkpt lat="62.064028582077" lon="12.366447053604">
        <ele>808.2</ele>
        <time>2018-02-26T14:59:51Z</time>
      </trkpt>
      <trkpt lat="62.063974183546" lon="12.366498602289">
        <ele>808.2</ele>
        <time>2018-02-26T14:59:53Z</time>
      </trkpt>
      <trkpt lat="62.063520136023" lon="12.366695074025">
        <ele>806.8</ele>
        <time>2018-02-26T15:00:07Z</time>
      </trkpt>
      <trkpt lat="62.063414272626" lon="12.366700689898">
        <ele>805.6</ele>
        <time>2018-02-26T15:00:09Z</time>
      </trkpt>
      <trkpt lat="62.063289633773" lon="12.366679735148">
        <ele>804.2</ele>
        <time>2018-02-26T15:00:11Z</time>
      </trkpt>
      <trkpt lat="62.063156193925" lon="12.366675795655">
        <ele>803.2</ele>
        <time>2018-02-26T15:00:13Z</time>
      </trkpt>
      <trkpt lat="62.063039434058" lon="12.366638831476">
        <ele>802.8</ele>
        <time>2018-02-26T15:00:15Z</time>
      </trkpt>
      <trkpt lat="62.062848494376" lon="12.3665546772">
        <ele>803</ele>
        <time>2018-02-26T15:00:19Z</time>
      </trkpt>
      <trkpt lat="62.06242990229" lon="12.366873273219">
        <ele>803</ele>
        <time>2018-02-26T15:00:32Z</time>
      </trkpt>
      <trkpt lat="62.062023883054" lon="12.367324722353">
        <ele>804</ele>
        <time>2018-02-26T15:00:50Z</time>
      </trkpt>
      <trkpt lat="62.061974178387" lon="12.367357076487">
        <ele>804.2</ele>
        <time>2018-02-26T15:00:52Z</time>
      </trkpt>
      <trkpt lat="62.061864543135" lon="12.36740627824">
        <ele>804.4</ele>
        <time>2018-02-26T15:00:56Z</time>
      </trkpt>
      <trkpt lat="62.061406388481" lon="12.367564612331">
        <ele>804</ele>
        <time>2018-02-26T15:01:11Z</time>
      </trkpt>
      <trkpt lat="62.061198433542" lon="12.367639211241">
        <ele>803.2</ele>
        <time>2018-02-26T15:01:17Z</time>
      </trkpt>
      <trkpt lat="62.061021659271" lon="12.367678354714">
        <ele>801.8</ele>
        <time>2018-02-26T15:01:21Z</time>
      </trkpt>
      <trkpt lat="62.06092535124" lon="12.367713810151">
        <ele>801.6</ele>
        <time>2018-02-26T15:01:23Z</time>
      </trkpt>
      <trkpt lat="62.060485636766" lon="12.367981611856">
        <ele>801.2</ele>
        <time>2018-02-26T15:01:35Z</time>
      </trkpt>
      <trkpt lat="62.060198389053" lon="12.368406322729">
        <ele>800.8</ele>
        <time>2018-02-26T15:01:45Z</time>
      </trkpt>
      <trkpt lat="62.059910638426" lon="12.369010154805">
        <ele>801.8</ele>
        <time>2018-02-26T15:02:01Z</time>
      </trkpt>
      <trkpt lat="62.059699498365" lon="12.369310478282">
        <ele>802.8</ele>
        <time>2018-02-26T15:02:10Z</time>
      </trkpt>
      <trkpt lat="62.059319882114" lon="12.369829820806">
        <ele>802.8</ele>
        <time>2018-02-26T15:02:26Z</time>
      </trkpt>
      <trkpt lat="62.05919281251" lon="12.369959237342">
        <ele>803</ele>
        <time>2018-02-26T15:02:31Z</time>
      </trkpt>
      <trkpt lat="62.058771119121" lon="12.370261823932">
        <ele>801.8</ele>
        <time>2018-02-26T15:02:45Z</time>
      </trkpt>
      <trkpt lat="62.058348084628" lon="12.370655857051">
        <ele>802</ele>
        <time>2018-02-26T15:03:01Z</time>
      </trkpt>
      <trkpt lat="62.058082378398" lon="12.371023654823">
        <ele>802.8</ele>
        <time>2018-02-26T15:03:13Z</time>
      </trkpt>
      <trkpt lat="62.057700666672" lon="12.371641317034">
        <ele>803.4</ele>
        <time>2018-02-26T15:03:30Z</time>
      </trkpt>
      <trkpt lat="62.057496567407" lon="12.371886990523">
        <ele>801.6</ele>
        <time>2018-02-26T15:03:36Z</time>
      </trkpt>
      <trkpt lat="62.057450969871" lon="12.371897719355">
        <ele>801</ele>
        <time>2018-02-26T15:03:37Z</time>
      </trkpt>
      <trkpt lat="62.057404198869" lon="12.371907526178">
        <ele>800.4</ele>
        <time>2018-02-26T15:03:38Z</time>
      </trkpt>
      <trkpt lat="62.056798019861" lon="12.372501802888">
        <ele>800</ele>
        <time>2018-02-26T15:03:57Z</time>
      </trkpt>
      <trkpt lat="62.056453775228" lon="12.373151819233">
        <ele>800</ele>
        <time>2018-02-26T15:04:14Z</time>
      </trkpt>
      <trkpt lat="62.056147332964" lon="12.373922702576">
        <ele>799.8</ele>
        <time>2018-02-26T15:04:30Z</time>
      </trkpt>
      <trkpt lat="62.055957315291" lon="12.374794168719">
        <ele>799.8</ele>
        <time>2018-02-26T15:04:47Z</time>
      </trkpt>
      <trkpt lat="62.055924458243" lon="12.375345781558">
        <ele>799.4</ele>
        <time>2018-02-26T15:04:55Z</time>
      </trkpt>
      <trkpt lat="62.055760759736" lon="12.376278100295">
        <ele>799.4</ele>
        <time>2018-02-26T15:05:13Z</time>
      </trkpt>
      <trkpt lat="62.055458340784" lon="12.377057533176">
        <ele>799.4</ele>
        <time>2018-02-26T15:05:30Z</time>
      </trkpt>
      <trkpt lat="62.055113844694" lon="12.377716769611">
        <ele>799.6</ele>
        <time>2018-02-26T15:05:46Z</time>
      </trkpt>
      <trkpt lat="62.054755769926" lon="12.378292773779">
        <ele>799</ele>
        <time>2018-02-26T15:06:01Z</time>
      </trkpt>
      <trkpt lat="62.054404065402" lon="12.378912699103">
        <ele>798.4</ele>
        <time>2018-02-26T15:06:16Z</time>
      </trkpt>
      <trkpt lat="62.054342877532" lon="12.379063657122">
        <ele>798.4</ele>
        <time>2018-02-26T15:06:19Z</time>
      </trkpt>
      <trkpt lat="62.053967619869" lon="12.379702860816">
        <ele>798</ele>
        <time>2018-02-26T15:06:34Z</time>
      </trkpt>
      <trkpt lat="62.053540981159" lon="12.38012916425">
        <ele>797.4</ele>
        <time>2018-02-26T15:06:48Z</time>
      </trkpt>
      <trkpt lat="62.053502759695" lon="12.380139390168">
        <ele>797.2</ele>
        <time>2018-02-26T15:06:49Z</time>
      </trkpt>
      <trkpt lat="62.053215009068" lon="12.380257910234">
        <ele>796</ele>
        <time>2018-02-26T15:06:57Z</time>
      </trkpt>
      <trkpt lat="62.052911081374" lon="12.380402917104">
        <ele>794.8</ele>
        <time>2018-02-26T15:07:06Z</time>
      </trkpt>
      <trkpt lat="62.052442281707" lon="12.380625288911">
        <ele>794</ele>
        <time>2018-02-26T15:07:19Z</time>
      </trkpt>
      <trkpt lat="62.052370113548" lon="12.380675496492">
        <ele>793.8</ele>
        <time>2018-02-26T15:07:21Z</time>
      </trkpt>
      <trkpt lat="62.051921262803" lon="12.380978837453">
        <ele>793.4</ele>
        <time>2018-02-26T15:07:36Z</time>
      </trkpt>
      <trkpt lat="62.05177231644" lon="12.38189858334">
        <ele>793</ele>
        <time>2018-02-26T15:07:54Z</time>
      </trkpt>
      <trkpt lat="62.0517672873" lon="12.382013499189">
        <ele>792.8</ele>
        <time>2018-02-26T15:07:56Z</time>
      </trkpt>
      <trkpt lat="62.0516667045" lon="12.382974316386">
        <ele>793</ele>
        <time>2018-02-26T15:08:14Z</time>
      </trkpt>
      <trkpt lat="62.051589674839" lon="12.38394963427">
        <ele>793.6</ele>
        <time>2018-02-26T15:08:31Z</time>
      </trkpt>
      <trkpt lat="62.051575174152" lon="12.384056000581">
        <ele>793.8</ele>
        <time>2018-02-26T15:08:33Z</time>
      </trkpt>
      <trkpt lat="62.051478698483" lon="12.384999634883">
        <ele>794.2</ele>
        <time>2018-02-26T15:08:49Z</time>
      </trkpt>
      <trkpt lat="62.051362190073" lon="12.385933965276">
        <ele>794.6</ele>
        <time>2018-02-26T15:09:07Z</time>
      </trkpt>
      <trkpt lat="62.051188349467" lon="12.38644073495">
        <ele>794.4</ele>
        <time>2018-02-26T15:09:23Z</time>
      </trkpt>
      <trkpt lat="62.05116965783" lon="12.386483985554">
        <ele>794</ele>
        <time>2018-02-26T15:10:01Z</time>
      </trkpt>
      <trkpt lat="62.0511554086" lon="12.386521452647">
        <ele>793.8</ele>
        <time>2018-02-26T15:10:04Z</time>
      </trkpt>
      <trkpt lat="62.051141243189" lon="12.38659412372">
        <ele>794</ele>
        <time>2018-02-26T15:10:07Z</time>
      </trkpt>
      <trkpt lat="62.050907639636" lon="12.387417896852">
        <ele>794.2</ele>
        <time>2018-02-26T15:10:27Z</time>
      </trkpt>
      <trkpt lat="62.050673030255" lon="12.387926259087">
        <ele>792.6</ele>
        <time>2018-02-26T15:10:36Z</time>
      </trkpt>
      <trkpt lat="62.050391901329" lon="12.388676020042">
        <ele>792.4</ele>
        <time>2018-02-26T15:10:49Z</time>
      </trkpt>
      <trkpt lat="62.050033156009" lon="12.389241546835">
        <ele>791.6</ele>
        <time>2018-02-26T15:11:03Z</time>
      </trkpt>
      <trkpt lat="62.049693689059" lon="12.389867088032">
        <ele>792.2</ele>
        <time>2018-02-26T15:11:18Z</time>
      </trkpt>
      <trkpt lat="62.049334692282" lon="12.390467315891">
        <ele>791.6</ele>
        <time>2018-02-26T15:11:33Z</time>
      </trkpt>
      <trkpt lat="62.048955746583" lon="12.391026388621">
        <ele>791.4</ele>
        <time>2018-02-26T15:11:48Z</time>
      </trkpt>
      <trkpt lat="62.048751312042" lon="12.391366945218">
        <ele>790.4</ele>
        <time>2018-02-26T15:11:57Z</time>
      </trkpt>
      <trkpt lat="62.048389884514" lon="12.391951247467">
        <ele>789.8</ele>
        <time>2018-02-26T15:12:11Z</time>
      </trkpt>
      <trkpt lat="62.048291564827" lon="12.392168254858">
        <ele>789.2</ele>
        <time>2018-02-26T15:12:15Z</time>
      </trkpt>
      <trkpt lat="62.04813205727" lon="12.392575028465">
        <ele>788.2</ele>
        <time>2018-02-26T15:12:22Z</time>
      </trkpt>
      <trkpt lat="62.047704245094" lon="12.392946849549">
        <ele>787.6</ele>
        <time>2018-02-26T15:12:37Z</time>
      </trkpt>
      <trkpt lat="62.047543899347" lon="12.39304315758">
        <ele>787</ele>
        <time>2018-02-26T15:12:42Z</time>
      </trkpt>
      <trkpt lat="62.047348517258" lon="12.393208113372">
        <ele>786</ele>
        <time>2018-02-26T15:12:54Z</time>
      </trkpt>
      <trkpt lat="62.04730392555" lon="12.393327220171">
        <ele>786.2</ele>
        <time>2018-02-26T15:13:05Z</time>
      </trkpt>
      <trkpt lat="62.047254807616" lon="12.393439453812">
        <ele>786</ele>
        <time>2018-02-26T15:13:09Z</time>
      </trkpt>
      <trkpt lat="62.046857505556" lon="12.393588986908">
        <ele>785</ele>
        <time>2018-02-26T15:13:22Z</time>
      </trkpt>
      <trkpt lat="62.046405637327" lon="12.393377846847">
        <ele>784.2</ele>
        <time>2018-02-26T15:13:34Z</time>
      </trkpt>
      <trkpt lat="62.045963575921" lon="12.393071236945">
        <ele>784.2</ele>
        <time>2018-02-26T15:13:47Z</time>
      </trkpt>
      <trkpt lat="62.045890821029" lon="12.393003595012">
        <ele>783.8</ele>
        <time>2018-02-26T15:13:49Z</time>
      </trkpt>
      <trkpt lat="62.045479940291" lon="12.3926056224">
        <ele>783.4</ele>
        <time>2018-02-26T15:14:02Z</time>
      </trkpt>
      <trkpt lat="62.045226136359" lon="12.392651136117">
        <ele>782.8</ele>
        <time>2018-02-26T15:14:12Z</time>
      </trkpt>
      <trkpt lat="62.0451120587" lon="12.393197216902">
        <ele>781.8</ele>
        <time>2018-02-26T15:14:24Z</time>
      </trkpt>
      <trkpt lat="62.044976020463" lon="12.394147975819">
        <ele>781.2</ele>
        <time>2018-02-26T15:14:42Z</time>
      </trkpt>
      <trkpt lat="62.044654742236" lon="12.394865131183">
        <ele>782</ele>
        <time>2018-02-26T15:14:59Z</time>
      </trkpt>
      <trkpt lat="62.044339163701" lon="12.395582118909">
        <ele>782.8</ele>
        <time>2018-02-26T15:15:17Z</time>
      </trkpt>
      <trkpt lat="62.044186529302" lon="12.396355935917">
        <ele>781.8</ele>
        <time>2018-02-26T15:15:30Z</time>
      </trkpt>
      <trkpt lat="62.044088796348" lon="12.39683680552">
        <ele>780.6</ele>
        <time>2018-02-26T15:15:36Z</time>
      </trkpt>
      <trkpt lat="62.043884361807" lon="12.397712043518">
        <ele>779.8</ele>
        <time>2018-02-26T15:15:51Z</time>
      </trkpt>
      <trkpt lat="62.043696607247" lon="12.398257286113">
        <ele>779.4</ele>
        <time>2018-02-26T15:16:04Z</time>
      </trkpt>
      <trkpt lat="62.04357733281" lon="12.398474544961">
        <ele>779.4</ele>
        <time>2018-02-26T15:16:13Z</time>
      </trkpt>
      <trkpt lat="62.043608429659" lon="12.398554340649">
        <ele>779.6</ele>
        <time>2018-02-26T15:16:18Z</time>
      </trkpt>
      <trkpt lat="62.044049317599" lon="12.398763552873">
        <ele>780</ele>
        <time>2018-02-26T15:16:38Z</time>
      </trkpt>
      <trkpt lat="62.044170436054" lon="12.398874780686">
        <ele>780.4</ele>
        <time>2018-02-26T15:16:44Z</time>
      </trkpt>
      <trkpt lat="62.044334302199" lon="12.39915104811">
        <ele>781.6</ele>
        <time>2018-02-26T15:16:55Z</time>
      </trkpt>
      <trkpt lat="62.044443937451" lon="12.399333270616">
        <ele>782.6</ele>
        <time>2018-02-26T15:17:02Z</time>
      </trkpt>
      <trkpt lat="62.044569917408" lon="12.39953913008">
        <ele>783.8</ele>
        <time>2018-02-26T15:17:10Z</time>
      </trkpt>
      <trkpt lat="62.044650802743" lon="12.39979813079">
        <ele>784.8</ele>
        <time>2018-02-26T15:17:17Z</time>
      </trkpt>
      <trkpt lat="62.044706542378" lon="12.400105243606">
        <ele>785.8</ele>
        <time>2018-02-26T15:17:25Z</time>
      </trkpt>
      <trkpt lat="62.044753481018" lon="12.400409590395">
        <ele>786.8</ele>
        <time>2018-02-26T15:17:33Z</time>
      </trkpt>
      <trkpt lat="62.044798240364" lon="12.400658868101">
        <ele>787.8</ele>
        <time>2018-02-26T15:17:40Z</time>
      </trkpt>
      <trkpt lat="62.044900331906" lon="12.400966483831">
        <ele>789</ele>
        <time>2018-02-26T15:17:53Z</time>
      </trkpt>
      <trkpt lat="62.044945761804" lon="12.401004621476">
        <ele>790.2</ele>
        <time>2018-02-26T15:17:57Z</time>
      </trkpt>
      <trkpt lat="62.044967135649" lon="12.401024235122">
        <ele>790.6</ele>
        <time>2018-02-26T15:17:59Z</time>
      </trkpt>
      <trkpt lat="62.044998567774" lon="12.401047452985">
        <ele>791.4</ele>
        <time>2018-02-26T15:18:02Z</time>
      </trkpt>
      <trkpt lat="62.045026311863" lon="12.40108475244">
        <ele>791.8</ele>
        <time>2018-02-26T15:18:05Z</time>
      </trkpt>
      <trkpt lat="62.045113483623" lon="12.401181647204">
        <ele>792.4</ele>
        <time>2018-02-26T15:18:12Z</time>
      </trkpt>
      <trkpt lat="62.045297382509" lon="12.40124400854">
        <ele>793.4</ele>
        <time>2018-02-26T15:18:23Z</time>
      </trkpt>
      <trkpt lat="62.045726871065" lon="12.401087769924">
        <ele>794.2</ele>
        <time>2018-02-26T15:18:42Z</time>
      </trkpt>
      <trkpt lat="62.045835249032" lon="12.400903200486">
        <ele>794.4</ele>
        <time>2018-02-26T15:18:48Z</time>
      </trkpt>
      <trkpt lat="62.04621679312" lon="12.400328621241">
        <ele>794.2</ele>
        <time>2018-02-26T15:19:04Z</time>
      </trkpt>
      <trkpt lat="62.04631318497" lon="12.400242790585">
        <ele>793.4</ele>
        <time>2018-02-26T15:19:06Z</time>
      </trkpt>
      <trkpt lat="62.046409744458" lon="12.400160312689">
        <ele>792</ele>
        <time>2018-02-26T15:19:08Z</time>
      </trkpt>
      <trkpt lat="62.046516362226" lon="12.400058137328">
        <ele>791.2</ele>
        <time>2018-02-26T15:19:10Z</time>
      </trkpt>
      <trkpt lat="62.046734207807" lon="12.399760496059">
        <ele>793</ele>
        <time>2018-02-26T15:19:20Z</time>
      </trkpt>
      <trkpt lat="62.047004943177" lon="12.399628062039">
        <ele>794</ele>
        <time>2018-02-26T15:19:32Z</time>
      </trkpt>
      <trkpt lat="62.047313816192" lon="12.399613477533">
        <ele>795</ele>
        <time>2018-02-26T15:19:50Z</time>
      </trkpt>
      <trkpt lat="62.047361090108" lon="12.399604089805">
        <ele>796.2</ele>
        <time>2018-02-26T15:19:55Z</time>
      </trkpt>
      <trkpt lat="62.047378105365" lon="12.399603251615">
        <ele>796.8</ele>
        <time>2018-02-26T15:19:57Z</time>
      </trkpt>
      <trkpt lat="62.047442897452" lon="12.399624038727">
        <ele>797.4</ele>
        <time>2018-02-26T15:20:03Z</time>
      </trkpt>
      <trkpt lat="62.047490255187" lon="12.399625715107">
        <ele>798.6</ele>
        <time>2018-02-26T15:20:08Z</time>
      </trkpt>
      <trkpt lat="62.047540127492" lon="12.399590762584">
        <ele>799.8</ele>
        <time>2018-02-26T15:20:14Z</time>
      </trkpt>
      <trkpt lat="62.047560076414" lon="12.399587912738">
        <ele>800</ele>
        <time>2018-02-26T15:20:16Z</time>
      </trkpt>
      <trkpt lat="62.04759645386" lon="12.3996128908">
        <ele>800.6</ele>
        <time>2018-02-26T15:20:20Z</time>
      </trkpt>
      <trkpt lat="62.047621515741" lon="12.399616495017">
        <ele>800.8</ele>
        <time>2018-02-26T15:20:22Z</time>
      </trkpt>
      <trkpt lat="62.04770877132" lon="12.399621524157">
        <ele>801.8</ele>
        <time>2018-02-26T15:20:29Z</time>
      </trkpt>
      <trkpt lat="62.047763588946" lon="12.399657398689">
        <ele>802.8</ele>
        <time>2018-02-26T15:20:34Z</time>
      </trkpt>
      <trkpt lat="62.047876576958" lon="12.399643652373">
        <ele>803.8</ele>
        <time>2018-02-26T15:20:42Z</time>
      </trkpt>
      <trkpt lat="62.048098613489" lon="12.399039233564">
        <ele>802.8</ele>
        <time>2018-02-26T15:20:57Z</time>
      </trkpt>
      <trkpt lat="62.048312435758" lon="12.398280503976">
        <ele>803.8</ele>
        <time>2018-02-26T15:21:11Z</time>
      </trkpt>
      <trkpt lat="62.048527934407" lon="12.397721179789">
        <ele>805</ele>
        <time>2018-02-26T15:21:27Z</time>
      </trkpt>
      <trkpt lat="62.048584596051" lon="12.397640378273">
        <ele>805</ele>
        <time>2018-02-26T15:21:30Z</time>
      </trkpt>
      <trkpt lat="62.048752988422" lon="12.398498517195">
        <ele>804.4</ele>
        <time>2018-02-26T15:21:52Z</time>
      </trkpt>
      <trkpt lat="62.048560288541" lon="12.399399906721">
        <ele>804.4</ele>
        <time>2018-02-26T15:22:12Z</time>
      </trkpt>
      <trkpt lat="62.048313190129" lon="12.400127036546">
        <ele>806</ele>
        <time>2018-02-26T15:22:30Z</time>
      </trkpt>
      <trkpt lat="62.048232053337" lon="12.400476645595">
        <ele>807.2</ele>
        <time>2018-02-26T15:22:39Z</time>
      </trkpt>
      <trkpt lat="62.048072042866" lon="12.401392954903">
        <ele>807.2</ele>
        <time>2018-02-26T15:22:57Z</time>
      </trkpt>
      <trkpt lat="62.04804991465" lon="12.40188103294">
        <ele>808.2</ele>
        <time>2018-02-26T15:23:08Z</time>
      </trkpt>
      <trkpt lat="62.048063744785" lon="12.402470364329">
        <ele>809.2</ele>
        <time>2018-02-26T15:23:21Z</time>
      </trkpt>
      <trkpt lat="62.047835505648" lon="12.403350631467">
        <ele>809</ele>
        <time>2018-02-26T15:23:39Z</time>
      </trkpt>
      <trkpt lat="62.047680775774" lon="12.404286722059">
        <ele>810</ele>
        <time>2018-02-26T15:23:56Z</time>
      </trkpt>
      <trkpt lat="62.047655043341" lon="12.404401386451">
        <ele>810.4</ele>
        <time>2018-02-26T15:23:59Z</time>
      </trkpt>
      <trkpt lat="62.047515317068" lon="12.404759796495">
        <ele>811.4</ele>
        <time>2018-02-26T15:24:10Z</time>
      </trkpt>
      <trkpt lat="62.047182220362" lon="12.405472090357">
        <ele>811.6</ele>
        <time>2018-02-26T15:24:30Z</time>
      </trkpt>
      <trkpt lat="62.047212143745" lon="12.406403403266">
        <ele>812.6</ele>
        <time>2018-02-26T15:24:47Z</time>
      </trkpt>
      <trkpt lat="62.047116422447" lon="12.407237150859">
        <ele>813.8</ele>
        <time>2018-02-26T15:25:06Z</time>
      </trkpt>
      <trkpt lat="62.046852644054" lon="12.408061846">
        <ele>813.6</ele>
        <time>2018-02-26T15:25:22Z</time>
      </trkpt>
      <trkpt lat="62.046735297454" lon="12.408221269738">
        <ele>812.6</ele>
        <time>2018-02-26T15:25:25Z</time>
      </trkpt>
      <trkpt lat="62.046606635289" lon="12.40836862354">
        <ele>811</ele>
        <time>2018-02-26T15:25:28Z</time>
      </trkpt>
      <trkpt lat="62.046474704183" lon="12.408602562369">
        <ele>810</ele>
        <time>2018-02-26T15:25:31Z</time>
      </trkpt>
      <trkpt lat="62.046339755593" lon="12.408910261918">
        <ele>811.2</ele>
        <time>2018-02-26T15:25:36Z</time>
      </trkpt>
      <trkpt lat="62.046321063956" lon="12.409116121382">
        <ele>812.2</ele>
        <time>2018-02-26T15:25:41Z</time>
      </trkpt>
      <trkpt lat="62.046337576299" lon="12.409315610602">
        <ele>812.8</ele>
        <time>2018-02-26T15:25:46Z</time>
      </trkpt>
      <trkpt lat="62.046371522994" lon="12.409539491151">
        <ele>813.2</ele>
        <time>2018-02-26T15:25:51Z</time>
      </trkpt>
      <trkpt lat="62.046424915697" lon="12.409985408231">
        <ele>814.4</ele>
        <time>2018-02-26T15:26:02Z</time>
      </trkpt>
      <trkpt lat="62.046458778573" lon="12.410202415622">
        <ele>815.6</ele>
        <time>2018-02-26T15:26:07Z</time>
      </trkpt>
      <trkpt lat="62.046548381084" lon="12.411135572549">
        <ele>816.6</ele>
        <time>2018-02-26T15:26:29Z</time>
      </trkpt>
      <trkpt lat="62.046553577862" lon="12.411171111805">
        <ele>816.8</ele>
        <time>2018-02-26T15:26:30Z</time>
      </trkpt>
      <trkpt lat="62.046590961136" lon="12.41135090356">
        <ele>817.8</ele>
        <time>2018-02-26T15:26:34Z</time>
      </trkpt>
      <trkpt lat="62.046649047703" lon="12.411823475082">
        <ele>818.8</ele>
        <time>2018-02-26T15:26:45Z</time>
      </trkpt>
      <trkpt lat="62.046661536734" lon="12.411995052575">
        <ele>819.8</ele>
        <time>2018-02-26T15:26:49Z</time>
      </trkpt>
      <trkpt lat="62.046616358293" lon="12.412317923363">
        <ele>821</ele>
        <time>2018-02-26T15:26:58Z</time>
      </trkpt>
      <trkpt lat="62.046477302572" lon="12.412743807702">
        <ele>822.2</ele>
        <time>2018-02-26T15:27:10Z</time>
      </trkpt>
      <trkpt lat="62.046433632873" lon="12.412907003295">
        <ele>823.2</ele>
        <time>2018-02-26T15:27:16Z</time>
      </trkpt>
      <trkpt lat="62.046199777863" lon="12.413672270765">
        <ele>821.8</ele>
        <time>2018-02-26T15:27:34Z</time>
      </trkpt>
      <trkpt lat="62.046108498972" lon="12.413939737194">
        <ele>820.6</ele>
        <time>2018-02-26T15:27:38Z</time>
      </trkpt>
      <trkpt lat="62.045749166919" lon="12.414519177941">
        <ele>820</ele>
        <time>2018-02-26T15:27:50Z</time>
      </trkpt>
      <trkpt lat="62.045484969431" lon="12.415032569316">
        <ele>819.4</ele>
        <time>2018-02-26T15:28:03Z</time>
      </trkpt>
      <trkpt lat="62.045232338965" lon="12.415772607267">
        <ele>820.4</ele>
        <time>2018-02-26T15:28:21Z</time>
      </trkpt>
      <trkpt lat="62.044986833114" lon="12.41657366545">
        <ele>821.2</ele>
        <time>2018-02-26T15:28:41Z</time>
      </trkpt>
      <trkpt lat="62.044961687414" lon="12.416622615746">
        <ele>821.6</ele>
        <time>2018-02-26T15:28:43Z</time>
      </trkpt>
      <trkpt lat="62.044856159293" lon="12.41694833638">
        <ele>822.6</ele>
        <time>2018-02-26T15:28:51Z</time>
      </trkpt>
      <trkpt lat="62.044780303098" lon="12.417169031807">
        <ele>823.6</ele>
        <time>2018-02-26T15:28:58Z</time>
      </trkpt>
      <trkpt lat="62.044493977394" lon="12.417946369213">
        <ele>824.4</ele>
        <time>2018-02-26T15:29:18Z</time>
      </trkpt>
      <trkpt lat="62.044441841976" lon="12.418067068573">
        <ele>825</ele>
        <time>2018-02-26T15:29:21Z</time>
      </trkpt>
      <trkpt lat="62.044369589998" lon="12.418211740167">
        <ele>826</ele>
        <time>2018-02-26T15:29:26Z</time>
      </trkpt>
      <trkpt lat="62.043950075903" lon="12.418599403042">
        <ele>824.8</ele>
        <time>2018-02-26T15:29:42Z</time>
      </trkpt>
      <trkpt lat="62.043851085664" lon="12.418687832087">
        <ele>824.4</ele>
        <time>2018-02-26T15:29:45Z</time>
      </trkpt>
      <trkpt lat="62.043458142192" lon="12.419218238719">
        <ele>824.4</ele>
        <time>2018-02-26T15:30:01Z</time>
      </trkpt>
      <trkpt lat="62.043033934233" lon="12.419647224361">
        <ele>825.2</ele>
        <time>2018-02-26T15:30:21Z</time>
      </trkpt>
      <trkpt lat="62.042587011325" lon="12.419968167312">
        <ele>824.2</ele>
        <time>2018-02-26T15:30:38Z</time>
      </trkpt>
      <trkpt lat="62.042406632837" lon="12.420864443879">
        <ele>825</ele>
        <time>2018-02-26T15:31:00Z</time>
      </trkpt>
      <trkpt lat="62.042422474628" lon="12.421573636438">
        <ele>825.8</ele>
        <time>2018-02-26T15:31:15Z</time>
      </trkpt>
      <trkpt lat="62.042368998106" lon="12.421869182232">
        <ele>826.6</ele>
        <time>2018-02-26T15:31:24Z</time>
      </trkpt>
      <trkpt lat="62.042320550724" lon="12.421958114191">
        <ele>826.8</ele>
        <time>2018-02-26T15:31:28Z</time>
      </trkpt>
      <trkpt lat="62.042276545749" lon="12.422061127742">
        <ele>827.8</ele>
        <time>2018-02-26T15:31:35Z</time>
      </trkpt>
      <trkpt lat="62.042200438097" lon="12.422255252546">
        <ele>828</ele>
        <time>2018-02-26T15:31:42Z</time>
      </trkpt>
      <trkpt lat="62.042155259656" lon="12.422410317696">
        <ele>829</ele>
        <time>2018-02-26T15:31:47Z</time>
      </trkpt>
      <trkpt lat="62.042104130066" lon="12.422633611512">
        <ele>830</ele>
        <time>2018-02-26T15:31:54Z</time>
      </trkpt>
      <trkpt lat="62.041841106044" lon="12.423416983886">
        <ele>830</ele>
        <time>2018-02-26T15:32:15Z</time>
      </trkpt>
      <trkpt lat="62.041676150252" lon="12.424290796961">
        <ele>831</ele>
        <time>2018-02-26T15:32:36Z</time>
      </trkpt>
      <trkpt lat="62.041626194128" lon="12.424474360571">
        <ele>832.2</ele>
        <time>2018-02-26T15:32:42Z</time>
      </trkpt>
      <trkpt lat="62.041531227201" lon="12.424837548298">
        <ele>833.2</ele>
        <time>2018-02-26T15:32:52Z</time>
      </trkpt>
      <trkpt lat="62.041436344093" lon="12.425205932803">
        <ele>834.4</ele>
        <time>2018-02-26T15:33:03Z</time>
      </trkpt>
      <trkpt lat="62.041340036062" lon="12.425513129438">
        <ele>835.4</ele>
        <time>2018-02-26T15:33:13Z</time>
      </trkpt>
      <trkpt lat="62.041028061744" lon="12.426237744693">
        <ele>835.8</ele>
        <time>2018-02-26T15:33:34Z</time>
      </trkpt>
      <trkpt lat="62.040814742389" lon="12.426461373785">
        <ele>834.8</ele>
        <time>2018-02-26T15:33:41Z</time>
      </trkpt>
      <trkpt lat="62.040645511828" lon="12.42672163178">
        <ele>834.2</ele>
        <time>2018-02-26T15:33:48Z</time>
      </trkpt>
      <trkpt lat="62.040563955941" lon="12.426938639171">
        <ele>833</ele>
        <time>2018-02-26T15:33:50Z</time>
      </trkpt>
      <trkpt lat="62.040453147223" lon="12.427214319862">
        <ele>832.4</ele>
        <time>2018-02-26T15:33:53Z</time>
      </trkpt>
      <trkpt lat="62.040244857008" lon="12.427546578378">
        <ele>834</ele>
        <time>2018-02-26T15:34:03Z</time>
      </trkpt>
      <trkpt lat="62.039990885438" lon="12.42788923045">
        <ele>832.4</ele>
        <time>2018-02-26T15:34:12Z</time>
      </trkpt>
      <trkpt lat="62.03971830605" lon="12.427996686408">
        <ele>831</ele>
        <time>2018-02-26T15:34:19Z</time>
      </trkpt>
      <trkpt lat="62.039614202852" lon="12.427846315122">
        <ele>829.2</ele>
        <time>2018-02-26T15:34:21Z</time>
      </trkpt>
      <trkpt lat="62.039513117138" lon="12.427685717918">
        <ele>827.6</ele>
        <time>2018-02-26T15:34:23Z</time>
      </trkpt>
      <trkpt lat="62.039461316996" lon="12.427618746537">
        <ele>827.2</ele>
        <time>2018-02-26T15:34:24Z</time>
      </trkpt>
      <trkpt lat="62.039344808586" lon="12.427480445187">
        <ele>826.8</ele>
        <time>2018-02-26T15:34:26Z</time>
      </trkpt>
      <trkpt lat="62.039239448103" lon="12.427372402496">
        <ele>826.6</ele>
        <time>2018-02-26T15:34:28Z</time>
      </trkpt>
      <trkpt lat="62.039127885014" lon="12.427231921852">
        <ele>826.6</ele>
        <time>2018-02-26T15:34:31Z</time>
      </trkpt>
      <trkpt lat="62.038796967602" lon="12.426515017945">
        <ele>827.4</ele>
        <time>2018-02-26T15:34:46Z</time>
      </trkpt>
      <trkpt lat="62.038746340926" lon="12.426354420741">
        <ele>827.6</ele>
        <time>2018-02-26T15:34:50Z</time>
      </trkpt>
      <trkpt lat="62.038705185797" lon="12.426238247607">
        <ele>828.8</ele>
        <time>2018-02-26T15:34:53Z</time>
      </trkpt>
      <trkpt lat="62.038663779211" lon="12.426082763362">
        <ele>829.8</ele>
        <time>2018-02-26T15:34:57Z</time>
      </trkpt>
      <trkpt lat="62.038597562201" lon="12.425847231972">
        <ele>831</ele>
        <time>2018-02-26T15:35:03Z</time>
      </trkpt>
      <trkpt lat="62.038489854786" lon="12.425370218043">
        <ele>831.6</ele>
        <time>2018-02-26T15:35:12Z</time>
      </trkpt>
      <trkpt lat="62.038418524817" lon="12.425045587056">
        <ele>828.8</ele>
        <time>2018-02-26T15:35:15Z</time>
      </trkpt>
      <trkpt lat="62.038395306954" lon="12.424900580186">
        <ele>827.4</ele>
        <time>2018-02-26T15:35:16Z</time>
      </trkpt>
      <trkpt lat="62.038370664168" lon="12.424727493951">
        <ele>826</ele>
        <time>2018-02-26T15:35:17Z</time>
      </trkpt>
      <trkpt lat="62.038355073834" lon="12.424532950052">
        <ele>824.6</ele>
        <time>2018-02-26T15:35:18Z</time>
      </trkpt>
      <trkpt lat="62.038342752441" lon="12.424315439747">
        <ele>823.4</ele>
        <time>2018-02-26T15:35:19Z</time>
      </trkpt>
      <trkpt lat="62.038345937563" lon="12.424114357966">
        <ele>822.2</ele>
        <time>2018-02-26T15:35:20Z</time>
      </trkpt>
      <trkpt lat="62.038358342775" lon="12.423908582321">
        <ele>820.8</ele>
        <time>2018-02-26T15:35:21Z</time>
      </trkpt>
      <trkpt lat="62.038370412711" lon="12.423699789192">
        <ele>819.6</ele>
        <time>2018-02-26T15:35:22Z</time>
      </trkpt>
      <trkpt lat="62.038406622519" lon="12.423346575926">
        <ele>818.4</ele>
        <time>2018-02-26T15:35:24Z</time>
      </trkpt>
      <trkpt lat="62.038432019676" lon="12.422933934989">
        <ele>818.2</ele>
        <time>2018-02-26T15:35:27Z</time>
      </trkpt>
      <trkpt lat="62.038416513161" lon="12.422716257046">
        <ele>818.2</ele>
        <time>2018-02-26T15:35:29Z</time>
      </trkpt>
      <trkpt lat="62.038366808494" lon="12.422274782373">
        <ele>818.4</ele>
        <time>2018-02-26T15:35:33Z</time>
      </trkpt>
      <trkpt lat="62.038265387504" lon="12.421422343143">
        <ele>818.4</ele>
        <time>2018-02-26T15:35:42Z</time>
      </trkpt>
      <trkpt lat="62.038152650949" lon="12.420489940587">
        <ele>818.4</ele>
        <time>2018-02-26T15:35:55Z</time>
      </trkpt>
      <trkpt lat="62.03816681636" lon="12.41985266473">
        <ele>817</ele>
        <time>2018-02-26T15:36:04Z</time>
      </trkpt>
      <trkpt lat="62.038156338985" lon="12.419672118604">
        <ele>815.8</ele>
        <time>2018-02-26T15:36:06Z</time>
      </trkpt>
      <trkpt lat="62.038153824415" lon="12.419575056202">
        <ele>815.6</ele>
        <time>2018-02-26T15:36:07Z</time>
      </trkpt>
      <trkpt lat="62.038174779165" lon="12.419382607778">
        <ele>814.8</ele>
        <time>2018-02-26T15:36:09Z</time>
      </trkpt>
      <trkpt lat="62.038361695535" lon="12.418993687618">
        <ele>816</ele>
        <time>2018-02-26T15:36:19Z</time>
      </trkpt>
      <trkpt lat="62.038418943912" lon="12.418873994086">
        <ele>817</ele>
        <time>2018-02-26T15:36:26Z</time>
      </trkpt>
      <trkpt lat="62.038452387693" lon="12.418819763193">
        <ele>818</ele>
        <time>2018-02-26T15:36:30Z</time>
      </trkpt>
      <trkpt lat="62.038497985229" lon="12.418724963904">
        <ele>819.4</ele>
        <time>2018-02-26T15:36:35Z</time>
      </trkpt>
      <trkpt lat="62.038532686295" lon="12.418655226496">
        <ele>820.4</ele>
        <time>2018-02-26T15:36:39Z</time>
      </trkpt>
      <trkpt lat="62.038560430384" lon="12.418565875442">
        <ele>821.4</ele>
        <time>2018-02-26T15:36:44Z</time>
      </trkpt>
      <trkpt lat="62.038594628536" lon="12.418397985985">
        <ele>822.6</ele>
        <time>2018-02-26T15:36:51Z</time>
      </trkpt>
      <trkpt lat="62.038596724011" lon="12.418376779778">
        <ele>822.8</ele>
        <time>2018-02-26T15:36:52Z</time>
      </trkpt>
      <trkpt lat="62.038608123395" lon="12.418319028487">
        <ele>822.6</ele>
        <time>2018-02-26T15:37:59Z</time>
      </trkpt>
      <trkpt lat="62.038616840571" lon="12.418298828108">
        <ele>823.2</ele>
        <time>2018-02-26T15:38:02Z</time>
      </trkpt>
      <trkpt lat="62.038655145854" lon="12.41821484147">
        <ele>823.2</ele>
        <time>2018-02-26T15:38:04Z</time>
      </trkpt>
      <trkpt lat="62.038835021428" lon="12.417822484731">
        <ele>821</ele>
        <time>2018-02-26T15:38:09Z</time>
      </trkpt>
      <trkpt lat="62.038885648104" lon="12.417703126475">
        <ele>819.8</ele>
        <time>2018-02-26T15:38:10Z</time>
      </trkpt>
      <trkpt lat="62.038934263124" lon="12.417590976653">
        <ele>818.6</ele>
        <time>2018-02-26T15:38:11Z</time>
      </trkpt>
      <trkpt lat="62.038988074922" lon="12.417478491555">
        <ele>817.4</ele>
        <time>2018-02-26T15:38:12Z</time>
      </trkpt>
      <trkpt lat="62.039046496765" lon="12.417364413896">
        <ele>816.4</ele>
        <time>2018-02-26T15:38:13Z</time>
      </trkpt>
      <trkpt lat="62.039184295201" lon="12.417129050144">
        <ele>814.4</ele>
        <time>2018-02-26T15:38:15Z</time>
      </trkpt>
      <trkpt lat="62.039262498328" lon="12.417003154006">
        <ele>813.2</ele>
        <time>2018-02-26T15:38:16Z</time>
      </trkpt>
      <trkpt lat="62.039336007591" lon="12.416871558176">
        <ele>811.8</ele>
        <time>2018-02-26T15:38:17Z</time>
      </trkpt>
      <trkpt lat="62.039406331732" lon="12.416739543251">
        <ele>810.8</ele>
        <time>2018-02-26T15:38:18Z</time>
      </trkpt>
      <trkpt lat="62.039545890367" lon="12.416484314396">
        <ele>809.2</ele>
        <time>2018-02-26T15:38:20Z</time>
      </trkpt>
      <trkpt lat="62.039696177834" lon="12.416316173482">
        <ele>808</ele>
        <time>2018-02-26T15:38:22Z</time>
      </trkpt>
      <trkpt lat="62.039898349262" lon="12.416167646214">
        <ele>807.6</ele>
        <time>2018-02-26T15:38:25Z</time>
      </trkpt>
      <trkpt lat="62.040281485911" lon="12.416073098382">
        <ele>809</ele>
        <time>2018-02-26T15:38:33Z</time>
      </trkpt>
      <trkpt lat="62.040325323248" lon="12.416080390635">
        <ele>809</ele>
        <time>2018-02-26T15:38:34Z</time>
      </trkpt>
      <trkpt lat="62.040721451842" lon="12.415990369029">
        <ele>810</ele>
        <time>2018-02-26T15:38:48Z</time>
      </trkpt>
      <trkpt lat="62.040799235874" lon="12.415931108996">
        <ele>811.4</ele>
        <time>2018-02-26T15:38:53Z</time>
      </trkpt>
      <trkpt lat="62.040832176741" lon="12.415885679098">
        <ele>811.8</ele>
        <time>2018-02-26T15:38:55Z</time>
      </trkpt>
      <trkpt lat="62.040798649141" lon="12.415214205089">
        <ele>811</ele>
        <time>2018-02-26T15:39:06Z</time>
      </trkpt>
      <trkpt lat="62.040734779063" lon="12.415051847686">
        <ele>809.8</ele>
        <time>2018-02-26T15:39:08Z</time>
      </trkpt>
      <trkpt lat="62.040651379158" lon="12.414884377324">
        <ele>808</ele>
        <time>2018-02-26T15:39:10Z</time>
      </trkpt>
      <trkpt lat="62.04054895234" lon="12.414736688246">
        <ele>806.8</ele>
        <time>2018-02-26T15:39:12Z</time>
      </trkpt>
      <trkpt lat="62.04045926601" lon="12.414568212056">
        <ele>806.4</ele>
        <time>2018-02-26T15:39:14Z</time>
      </trkpt>
      <trkpt lat="62.040351055681" lon="12.414294123926">
        <ele>807</ele>
        <time>2018-02-26T15:39:18Z</time>
      </trkpt>
      <trkpt lat="62.040325742343" lon="12.414074853422">
        <ele>806.2</ele>
        <time>2018-02-26T15:39:20Z</time>
      </trkpt>
      <trkpt lat="62.040317528081" lon="12.413932025846">
        <ele>805</ele>
        <time>2018-02-26T15:39:21Z</time>
      </trkpt>
      <trkpt lat="62.040308894724" lon="12.413785761691">
        <ele>804</ele>
        <time>2018-02-26T15:39:22Z</time>
      </trkpt>
      <trkpt lat="62.040286682689" lon="12.413482085454">
        <ele>802.2</ele>
        <time>2018-02-26T15:39:24Z</time>
      </trkpt>
      <trkpt lat="62.040279390436" lon="12.413324254277">
        <ele>801.6</ele>
        <time>2018-02-26T15:39:25Z</time>
      </trkpt>
      <trkpt lat="62.040284419576" lon="12.413173547715">
        <ele>801.2</ele>
        <time>2018-02-26T15:39:26Z</time>
      </trkpt>
      <trkpt lat="62.040306296335" lon="12.413047148663">
        <ele>801</ele>
        <time>2018-02-26T15:39:27Z</time>
      </trkpt>
      <trkpt lat="62.040425235496" lon="12.412715979794">
        <ele>800.4</ele>
        <time>2018-02-26T15:39:30Z</time>
      </trkpt>
      <trkpt lat="62.040472174136" lon="12.412633837174">
        <ele>800.2</ele>
        <time>2018-02-26T15:39:31Z</time>
      </trkpt>
      <trkpt lat="62.040777442934" lon="12.411891871386">
        <ele>799.8</ele>
        <time>2018-02-26T15:39:43Z</time>
      </trkpt>
      <trkpt lat="62.04084734798" lon="12.411342437841">
        <ele>799.2</ele>
        <time>2018-02-26T15:39:50Z</time>
      </trkpt>
      <trkpt lat="62.040972657385" lon="12.410738689584">
        <ele>798.6</ele>
        <time>2018-02-26T15:39:59Z</time>
      </trkpt>
      <trkpt lat="62.040977351249" lon="12.410548923368">
        <ele>797.8</ele>
        <time>2018-02-26T15:40:01Z</time>
      </trkpt>
      <trkpt lat="62.040973663213" lon="12.410434845709">
        <ele>797.6</ele>
        <time>2018-02-26T15:40:02Z</time>
      </trkpt>
      <trkpt lat="62.040964946037" lon="12.410156818086">
        <ele>796.6</ele>
        <time>2018-02-26T15:40:05Z</time>
      </trkpt>
      <trkpt lat="62.040971064824" lon="12.409896392453">
        <ele>795.4</ele>
        <time>2018-02-26T15:40:07Z</time>
      </trkpt>
      <trkpt lat="62.040989588823" lon="12.409644097263">
        <ele>794</ele>
        <time>2018-02-26T15:40:09Z</time>
      </trkpt>
      <trkpt lat="62.041032671789" lon="12.409319131">
        <ele>793</ele>
        <time>2018-02-26T15:40:12Z</time>
      </trkpt>
      <trkpt lat="62.041052033978" lon="12.409232210697">
        <ele>792.8</ele>
        <time>2018-02-26T15:40:13Z</time>
      </trkpt>
      <trkpt lat="62.041079610429" lon="12.409166245144">
        <ele>792.6</ele>
        <time>2018-02-26T15:40:14Z</time>
      </trkpt>
      <trkpt lat="62.041160914859" lon="12.409027692337">
        <ele>792.2</ele>
        <time>2018-02-26T15:40:16Z</time>
      </trkpt>
      <trkpt lat="62.041606915758" lon="12.408760477365">
        <ele>793.8</ele>
        <time>2018-02-26T15:40:34Z</time>
      </trkpt>
      <trkpt lat="62.041631977639" lon="12.408758465709">
        <ele>794</ele>
        <time>2018-02-26T15:40:35Z</time>
      </trkpt>
      <trkpt lat="62.041796598155" lon="12.408677412736">
        <ele>795.2</ele>
        <time>2018-02-26T15:40:44Z</time>
      </trkpt>
      <trkpt lat="62.041831885954" lon="12.408656290348">
        <ele>795.8</ele>
        <time>2018-02-26T15:40:46Z</time>
      </trkpt>
      <trkpt lat="62.041890475435" lon="12.40857984742">
        <ele>796.2</ele>
        <time>2018-02-26T15:40:49Z</time>
      </trkpt>
      <trkpt lat="62.042053587209" lon="12.408272650785">
        <ele>797.2</ele>
        <time>2018-02-26T15:40:58Z</time>
      </trkpt>
      <trkpt lat="62.042079152004" lon="12.408022870165">
        <ele>797.6</ele>
        <time>2018-02-26T15:41:05Z</time>
      </trkpt>
      <trkpt lat="62.041853930351" lon="12.407264894948">
        <ele>795.8</ele>
        <time>2018-02-26T15:41:21Z</time>
      </trkpt>
      <trkpt lat="62.041832891782" lon="12.407039505657">
        <ele>794.4</ele>
        <time>2018-02-26T15:41:23Z</time>
      </trkpt>
      <trkpt lat="62.041829958117" lon="12.406737421981">
        <ele>792.6</ele>
        <time>2018-02-26T15:41:25Z</time>
      </trkpt>
      <trkpt lat="62.041862312251" lon="12.406396697746">
        <ele>790.8</ele>
        <time>2018-02-26T15:41:27Z</time>
      </trkpt>
      <trkpt lat="62.041890475435" lon="12.406234759438">
        <ele>790</ele>
        <time>2018-02-26T15:41:28Z</time>
      </trkpt>
      <trkpt lat="62.041920314999" lon="12.406091848043">
        <ele>789.4</ele>
        <time>2018-02-26T15:41:29Z</time>
      </trkpt>
      <trkpt lat="62.041999691592" lon="12.405810802936">
        <ele>788.4</ele>
        <time>2018-02-26T15:41:31Z</time>
      </trkpt>
      <trkpt lat="62.04203673959" lon="12.405693372517">
        <ele>788</ele>
        <time>2018-02-26T15:41:32Z</time>
      </trkpt>
      <trkpt lat="62.042225835254" lon="12.40520110353">
        <ele>788.2</ele>
        <time>2018-02-26T15:41:40Z</time>
      </trkpt>
      <trkpt lat="62.042245365081" lon="12.405007146364">
        <ele>786.6</ele>
        <time>2018-02-26T15:41:42Z</time>
      </trkpt>
      <trkpt lat="62.042263386166" lon="12.404751330776">
        <ele>784.8</ele>
        <time>2018-02-26T15:41:44Z</time>
      </trkpt>
      <trkpt lat="62.042263134709" lon="12.404486881831">
        <ele>783.2</ele>
        <time>2018-02-26T15:41:46Z</time>
      </trkpt>
      <trkpt lat="62.042212424214" lon="12.404107517037">
        <ele>782.4</ele>
        <time>2018-02-26T15:41:49Z</time>
      </trkpt>
      <trkpt lat="62.042169341248" lon="12.403898975365">
        <ele>782.2</ele>
        <time>2018-02-26T15:41:51Z</time>
      </trkpt>
      <trkpt lat="62.042147296851" lon="12.403807780293">
        <ele>782</ele>
        <time>2018-02-26T15:41:52Z</time>
      </trkpt>
      <trkpt lat="62.042030620803" lon="12.403081991572">
        <ele>781.6</ele>
        <time>2018-02-26T15:41:58Z</time>
      </trkpt>
      <trkpt lat="62.042015198107" lon="12.402816872075">
        <ele>783.4</ele>
        <time>2018-02-26T15:42:04Z</time>
      </trkpt>
      <trkpt lat="62.042020227247" lon="12.402750152151">
        <ele>784</ele>
        <time>2018-02-26T15:42:07Z</time>
      </trkpt>
      <trkpt lat="62.042027435681" lon="12.402621322348">
        <ele>784.6</ele>
        <time>2018-02-26T15:42:11Z</time>
      </trkpt>
      <trkpt lat="62.04205434158" lon="12.401914476721">
        <ele>782.4</ele>
        <time>2018-02-26T15:42:20Z</time>
      </trkpt>
      <trkpt lat="62.042058783987" lon="12.401766536186">
        <ele>781.2</ele>
        <time>2018-02-26T15:42:21Z</time>
      </trkpt>
      <trkpt lat="62.042072949398" lon="12.401519186317">
        <ele>780.2</ele>
        <time>2018-02-26T15:42:23Z</time>
      </trkpt>
      <trkpt lat="62.042084097325" lon="12.400666411811">
        <ele>778.8</ele>
        <time>2018-02-26T15:42:32Z</time>
      </trkpt>
      <trkpt lat="62.042076302158" lon="12.400365836877">
        <ele>777.4</ele>
        <time>2018-02-26T15:42:34Z</time>
      </trkpt>
      <trkpt lat="62.042041181997" lon="12.40006383702">
        <ele>776</ele>
        <time>2018-02-26T15:42:36Z</time>
      </trkpt>
      <trkpt lat="62.041981838145" lon="12.399650525531">
        <ele>774.8</ele>
        <time>2018-02-26T15:42:39Z</time>
      </trkpt>
      <trkpt lat="62.041897264774" lon="12.39922480883">
        <ele>775.4</ele>
        <time>2018-02-26T15:42:43Z</time>
      </trkpt>
      <trkpt lat="62.04205015063" lon="12.398451243279">
        <ele>776</ele>
        <time>2018-02-26T15:42:58Z</time>
      </trkpt>
      <trkpt lat="62.042258776121" lon="12.39831034354">
        <ele>777</ele>
        <time>2018-02-26T15:43:10Z</time>
      </trkpt>
      <trkpt lat="62.042271600428" lon="12.398337417077">
        <ele>777.2</ele>
        <time>2018-02-26T15:43:11Z</time>
      </trkpt>
      <trkpt lat="62.04245583459" lon="12.398661964245">
        <ele>778</ele>
        <time>2018-02-26T15:43:21Z</time>
      </trkpt>
      <trkpt lat="62.04273411367" lon="12.398889365192">
        <ele>779.2</ele>
        <time>2018-02-26T15:43:33Z</time>
      </trkpt>
      <trkpt lat="62.042879455816" lon="12.398883078767">
        <ele>779.6</ele>
        <time>2018-02-26T15:43:40Z</time>
      </trkpt>
      <trkpt lat="62.042925304809" lon="12.398827422951">
        <ele>780.2</ele>
        <time>2018-02-26T15:43:43Z</time>
      </trkpt>
      <trkpt lat="62.043030916749" lon="12.398697419682">
        <ele>781.4</ele>
        <time>2018-02-26T15:43:49Z</time>
      </trkpt>
      <trkpt lat="62.043463841884" lon="12.398407489761">
        <ele>781</ele>
        <time>2018-02-26T15:44:06Z</time>
      </trkpt>
      <trkpt lat="62.043830633828" lon="12.397886387038">
        <ele>780.8</ele>
        <time>2018-02-26T15:44:26Z</time>
      </trkpt>
      <trkpt lat="62.044028949582" lon="12.397005784624">
        <ele>781.4</ele>
        <time>2018-02-26T15:44:45Z</time>
      </trkpt>
      <trkpt lat="62.044227265336" lon="12.39612853497">
        <ele>782.2</ele>
        <time>2018-02-26T15:45:05Z</time>
      </trkpt>
      <trkpt lat="62.0442403411" lon="12.396061898865">
        <ele>782.4</ele>
        <time>2018-02-26T15:45:07Z</time>
      </trkpt>
      <trkpt lat="62.044355592225" lon="12.39542110261">
        <ele>783.6</ele>
        <time>2018-02-26T15:45:22Z</time>
      </trkpt>
      <trkpt lat="62.044710230414" lon="12.394830849212">
        <ele>783.6</ele>
        <time>2018-02-26T15:45:42Z</time>
      </trkpt>
      <trkpt lat="62.044981720155" lon="12.39407496947">
        <ele>783.8</ele>
        <time>2018-02-26T15:46:01Z</time>
      </trkpt>
      <trkpt lat="62.04509864766" lon="12.393462839313">
        <ele>784.6</ele>
        <time>2018-02-26T15:46:14Z</time>
      </trkpt>
      <trkpt lat="62.045245247091" lon="12.392539153933">
        <ele>784.2</ele>
        <time>2018-02-26T15:46:33Z</time>
      </trkpt>
      <trkpt lat="62.045281540718" lon="12.392427171749">
        <ele>784.2</ele>
        <time>2018-02-26T15:46:37Z</time>
      </trkpt>
      <trkpt lat="62.04532663534" lon="12.39241200051">
        <ele>784.2</ele>
        <time>2018-02-26T15:46:41Z</time>
      </trkpt>
      <trkpt lat="62.045742796675" lon="12.392835873193">
        <ele>784.4</ele>
        <time>2018-02-26T15:47:03Z</time>
      </trkpt>
      <trkpt lat="62.046157616906" lon="12.393201491671">
        <ele>784.8</ele>
        <time>2018-02-26T15:47:25Z</time>
      </trkpt>
      <trkpt lat="62.046496245666" lon="12.39338933005">
        <ele>785.6</ele>
        <time>2018-02-26T15:47:43Z</time>
      </trkpt>
      <trkpt lat="62.046940234909" lon="12.393610360753">
        <ele>786.2</ele>
        <time>2018-02-26T15:48:06Z</time>
      </trkpt>
      <trkpt lat="62.047209712994" lon="12.393581443198">
        <ele>786.8</ele>
        <time>2018-02-26T15:48:21Z</time>
      </trkpt>
      <trkpt lat="62.047410710956" lon="12.393132676272">
        <ele>787.4</ele>
        <time>2018-02-26T15:48:51Z</time>
      </trkpt>
      <trkpt lat="62.047485896599" lon="12.39306578871">
        <ele>787.8</ele>
        <time>2018-02-26T15:48:55Z</time>
      </trkpt>
      <trkpt lat="62.047772976674" lon="12.392868897879">
        <ele>789</ele>
        <time>2018-02-26T15:49:09Z</time>
      </trkpt>
      <trkpt lat="62.048161058644" lon="12.392424405722">
        <ele>789.2</ele>
        <time>2018-02-26T15:49:28Z</time>
      </trkpt>
      <trkpt lat="62.048390722704" lon="12.391909673243">
        <ele>790</ele>
        <time>2018-02-26T15:49:44Z</time>
      </trkpt>
      <trkpt lat="62.048764136349" lon="12.391355126739">
        <ele>790.8</ele>
        <time>2018-02-26T15:50:04Z</time>
      </trkpt>
      <trkpt lat="62.048801016709" lon="12.39130307514">
        <ele>791</ele>
        <time>2018-02-26T15:50:06Z</time>
      </trkpt>
      <trkpt lat="62.049125228601" lon="12.390808626859">
        <ele>791.4</ele>
        <time>2018-02-26T15:50:24Z</time>
      </trkpt>
      <trkpt lat="62.049496295314" lon="12.39023270651">
        <ele>791.6</ele>
        <time>2018-02-26T15:50:44Z</time>
      </trkpt>
      <trkpt lat="62.049845066173" lon="12.389559891397">
        <ele>791.8</ele>
        <time>2018-02-26T15:51:03Z</time>
      </trkpt>
      <trkpt lat="62.050195345774" lon="12.388964692678">
        <ele>792</ele>
        <time>2018-02-26T15:51:23Z</time>
      </trkpt>
      <trkpt lat="62.050405982921" lon="12.388633942904">
        <ele>792</ele>
        <time>2018-02-26T15:51:35Z</time>
      </trkpt>
      <trkpt lat="62.050710832624" lon="12.387899353188">
        <ele>792.6</ele>
        <time>2018-02-26T15:51:56Z</time>
      </trkpt>
      <trkpt lat="62.050864053756" lon="12.387649740206">
        <ele>793</ele>
        <time>2018-02-26T15:52:05Z</time>
      </trkpt>
      <trkpt lat="62.051033703412" lon="12.38704758451">
        <ele>794.2</ele>
        <time>2018-02-26T15:52:21Z</time>
      </trkpt>
    </trkseg>
  </trk>
</gpx>